<?xml version="1.0" encoding="UTF-8" standalone="no" ?>
<gpx xmlns="http://www.topografix.com/GPX/1/1" xmlns:xsi="http://www.w3.org/2001/XMLSchema-instance" xsi:schemaLocation="http://www.topografix.com/GPX/1/1 http://www.topografix.com/GPX/1/1/gpx.xsd" version="1.1" creator="VisuGPX - https://www.visugpx.com">
  <metadata>
    <name>Col de Cabres Luzet Beaurières</name>
    <desc><![CDATA[File with points/tracks from Locus Map/3.19.0]]></desc>
  </metadata>
  <trk>
    <name><![CDATA[F26310 col de Cabres Luzet Beaurières LT LCV N3]]></name>
    <trkseg>
      <trkpt lat="44.54953" lon="5.59856">
        <ele>1181.5</ele>
        <time>2016-10-20T07:37:51.938Z</time>
      </trkpt>
      <trkpt lat="44.54949" lon="5.59824">
        <ele>1181.15</ele>
        <time>2016-10-20T07:40:00.098Z</time>
      </trkpt>
      <trkpt lat="44.54957" lon="5.59794">
        <ele>1179.75</ele>
        <time>2016-10-20T07:40:23.955Z</time>
      </trkpt>
      <trkpt lat="44.5498" lon="5.59793">
        <ele>1183.55</ele>
        <time>2016-10-20T07:40:46.151Z</time>
      </trkpt>
      <trkpt lat="44.55003" lon="5.59791">
        <ele>1188.55</ele>
        <time>2016-10-20T07:41:13.220Z</time>
      </trkpt>
      <trkpt lat="44.55023" lon="5.59772">
        <ele>1192.5</ele>
        <time>2016-10-20T07:41:38.108Z</time>
      </trkpt>
      <trkpt lat="44.55035" lon="5.59745">
        <ele>1192.65</ele>
        <time>2016-10-20T07:41:57.105Z</time>
      </trkpt>
      <trkpt lat="44.55051" lon="5.5972">
        <ele>1194.91</ele>
        <time>2016-10-20T07:42:25.111Z</time>
      </trkpt>
      <trkpt lat="44.55069" lon="5.59701">
        <ele>1198.79</ele>
        <time>2016-10-20T07:42:49.890Z</time>
      </trkpt>
      <trkpt lat="44.55087" lon="5.59679">
        <ele>1201.09</ele>
        <time>2016-10-20T07:43:12.104Z</time>
      </trkpt>
      <trkpt lat="44.55086" lon="5.59647">
        <ele>1195.19</ele>
        <time>2016-10-20T07:43:33.126Z</time>
      </trkpt>
      <trkpt lat="44.55104" lon="5.59626">
        <ele>1196.15</ele>
        <time>2016-10-20T07:43:54.203Z</time>
      </trkpt>
      <trkpt lat="44.55125" lon="5.59611">
        <ele>1198.53</ele>
        <time>2016-10-20T07:44:20.100Z</time>
      </trkpt>
      <trkpt lat="44.5515" lon="5.59613">
        <ele>1205.04</ele>
        <time>2016-10-20T07:44:38.103Z</time>
      </trkpt>
      <trkpt lat="44.55173" lon="5.59606">
        <ele>1208.89</ele>
        <time>2016-10-20T07:45:02.100Z</time>
      </trkpt>
      <trkpt lat="44.55195" lon="5.59595">
        <ele>1210.56</ele>
        <time>2016-10-20T07:45:26.091Z</time>
      </trkpt>
      <trkpt lat="44.55217" lon="5.59582">
        <ele>1211.17</ele>
        <time>2016-10-20T07:45:49.857Z</time>
      </trkpt>
      <trkpt lat="44.55242" lon="5.59596">
        <ele>1220.37</ele>
        <time>2016-10-20T07:46:02.105Z</time>
      </trkpt>
      <trkpt lat="44.55265" lon="5.59594">
        <ele>1226.11</ele>
        <time>2016-10-20T07:46:39.102Z</time>
      </trkpt>
      <trkpt lat="44.55287" lon="5.59582">
        <ele>1229.91</ele>
        <time>2016-10-20T07:47:50.108Z</time>
      </trkpt>
      <trkpt lat="44.5531" lon="5.59586">
        <ele>1239.16</ele>
        <time>2016-10-20T07:48:07.051Z</time>
      </trkpt>
      <trkpt lat="44.55335" lon="5.59585">
        <ele>1247.03</ele>
        <time>2016-10-20T07:49:36.050Z</time>
      </trkpt>
      <trkpt lat="44.55359" lon="5.59586">
        <ele>1255.78</ele>
        <time>2016-10-20T07:49:42.048Z</time>
      </trkpt>
      <trkpt lat="44.55371" lon="5.59558">
        <ele>1249.31</ele>
        <time>2016-10-20T07:49:56.046Z</time>
      </trkpt>
      <trkpt lat="44.55393" lon="5.59551">
        <ele>1254.19</ele>
        <time>2016-10-20T07:50:14.056Z</time>
      </trkpt>
      <trkpt lat="44.55417" lon="5.5955">
        <ele>1261.32</ele>
        <time>2016-10-20T07:51:24.059Z</time>
      </trkpt>
      <trkpt lat="44.55441" lon="5.59546">
        <ele>1267.21</ele>
        <time>2016-10-20T07:52:01.046Z</time>
      </trkpt>
      <trkpt lat="44.55466" lon="5.59541">
        <ele>1272.4</ele>
        <time>2016-10-20T07:53:18.839Z</time>
      </trkpt>
      <trkpt lat="44.55487" lon="5.59557">
        <ele>1285.53</ele>
        <time>2016-10-20T07:55:21.836Z</time>
      </trkpt>
      <trkpt lat="44.55502" lon="5.59581">
        <ele>1298.54</ele>
        <time>2016-10-20T07:55:30.047Z</time>
      </trkpt>
      <trkpt lat="44.5552" lon="5.59601">
        <ele>1307.02</ele>
        <time>2016-10-20T07:56:23.047Z</time>
      </trkpt>
      <trkpt lat="44.55537" lon="5.59636">
        <ele>1314.26</ele>
        <time>2016-10-20T08:02:27.190Z</time>
      </trkpt>
      <trkpt lat="44.5555" lon="5.59664">
        <ele>1315.88</ele>
        <time>2016-10-20T08:02:44.126Z</time>
      </trkpt>
      <trkpt lat="44.55565" lon="5.5969">
        <ele>1315.04</ele>
        <time>2016-10-20T08:03:12.100Z</time>
      </trkpt>
      <trkpt lat="44.55583" lon="5.59712">
        <ele>1311.44</ele>
        <time>2016-10-20T08:03:30.054Z</time>
      </trkpt>
      <trkpt lat="44.55597" lon="5.59737">
        <ele>1310.2</ele>
        <time>2016-10-20T08:03:58.880Z</time>
      </trkpt>
      <trkpt lat="44.55614" lon="5.59759">
        <ele>1307.25</ele>
        <time>2016-10-20T08:04:27.097Z</time>
      </trkpt>
      <trkpt lat="44.55638" lon="5.5977">
        <ele>1299.17</ele>
        <time>2016-10-20T08:04:45.099Z</time>
      </trkpt>
      <trkpt lat="44.55656" lon="5.59789">
        <ele>1296.39</ele>
        <time>2016-10-20T08:05:07.105Z</time>
      </trkpt>
      <trkpt lat="44.55679" lon="5.598">
        <ele>1290.06</ele>
        <time>2016-10-20T08:05:22.091Z</time>
      </trkpt>
      <trkpt lat="44.55696" lon="5.5982">
        <ele>1289.47</ele>
        <time>2016-10-20T08:05:46.184Z</time>
      </trkpt>
      <trkpt lat="44.55715" lon="5.59839">
        <ele>1287.11</ele>
        <time>2016-10-20T08:06:12.095Z</time>
      </trkpt>
      <trkpt lat="44.55734" lon="5.59858">
        <ele>1284.97</ele>
        <time>2016-10-20T08:06:30.097Z</time>
      </trkpt>
      <trkpt lat="44.55756" lon="5.59868">
        <ele>1279.75</ele>
        <time>2016-10-20T08:07:16.087Z</time>
      </trkpt>
      <trkpt lat="44.55777" lon="5.59887">
        <ele>1279.25</ele>
        <time>2016-10-20T08:07:30.092Z</time>
      </trkpt>
      <trkpt lat="44.55794" lon="5.59912">
        <ele>1283.29</ele>
        <time>2016-10-20T08:08:15.086Z</time>
      </trkpt>
      <trkpt lat="44.55811" lon="5.59933">
        <ele>1285.94</ele>
        <time>2016-10-20T08:08:26.083Z</time>
      </trkpt>
      <trkpt lat="44.5583" lon="5.5995">
        <ele>1287.51</ele>
        <time>2016-10-20T08:08:54.951Z</time>
      </trkpt>
      <trkpt lat="44.55851" lon="5.59937">
        <ele>1283.29</ele>
        <time>2016-10-20T08:09:19.977Z</time>
      </trkpt>
      <trkpt lat="44.55871" lon="5.59918">
        <ele>1278.54</ele>
        <time>2016-10-20T08:09:52.850Z</time>
      </trkpt>
      <trkpt lat="44.55891" lon="5.59901">
        <ele>1274.02</ele>
        <time>2016-10-20T08:10:14.094Z</time>
      </trkpt>
      <trkpt lat="44.55914" lon="5.59904">
        <ele>1276.32</ele>
        <time>2016-10-20T08:10:35.039Z</time>
      </trkpt>
      <trkpt lat="44.55937" lon="5.59904">
        <ele>1276.51</ele>
        <time>2016-10-20T08:10:54.033Z</time>
      </trkpt>
      <trkpt lat="44.55959" lon="5.5991">
        <ele>1278.45</ele>
        <time>2016-10-20T08:11:13.841Z</time>
      </trkpt>
      <trkpt lat="44.55979" lon="5.59925">
        <ele>1282.06</ele>
        <time>2016-10-20T08:11:27.037Z</time>
      </trkpt>
      <trkpt lat="44.55999" lon="5.59943">
        <ele>1284.92</ele>
        <time>2016-10-20T08:11:46.042Z</time>
      </trkpt>
      <trkpt lat="44.56022" lon="5.59946">
        <ele>1281.6</ele>
        <time>2016-10-20T08:12:09.129Z</time>
      </trkpt>
      <trkpt lat="44.56043" lon="5.5996">
        <ele>1279.71</ele>
        <time>2016-10-20T08:12:34.060Z</time>
      </trkpt>
      <trkpt lat="44.56063" lon="5.59974">
        <ele>1277.58</ele>
        <time>2016-10-20T08:12:52.116Z</time>
      </trkpt>
      <trkpt lat="44.56079" lon="5.59999">
        <ele>1278.47</ele>
        <time>2016-10-20T08:13:07.051Z</time>
      </trkpt>
      <trkpt lat="44.56096" lon="5.60021">
        <ele>1279.3</ele>
        <time>2016-10-20T08:13:28.915Z</time>
      </trkpt>
      <trkpt lat="44.56117" lon="5.60034">
        <ele>1279</ele>
        <time>2016-10-20T08:13:46.040Z</time>
      </trkpt>
      <trkpt lat="44.56137" lon="5.60048">
        <ele>1279</ele>
        <time>2016-10-20T08:14:07.857Z</time>
      </trkpt>
      <trkpt lat="44.5616" lon="5.60061">
        <ele>1279.18</ele>
        <time>2016-10-20T08:14:33.846Z</time>
      </trkpt>
      <trkpt lat="44.56185" lon="5.60055">
        <ele>1278.23</ele>
        <time>2016-10-20T08:15:00.091Z</time>
      </trkpt>
      <trkpt lat="44.56207" lon="5.60047">
        <ele>1278.04</ele>
        <time>2016-10-20T08:15:25.036Z</time>
      </trkpt>
      <trkpt lat="44.56229" lon="5.60036">
        <ele>1276.73</ele>
        <time>2016-10-20T08:15:57.045Z</time>
      </trkpt>
      <trkpt lat="44.56251" lon="5.60028">
        <ele>1273.27</ele>
        <time>2016-10-20T08:16:13.038Z</time>
      </trkpt>
      <trkpt lat="44.56272" lon="5.60039">
        <ele>1270.76</ele>
        <time>2016-10-20T08:16:31.039Z</time>
      </trkpt>
      <trkpt lat="44.56293" lon="5.60053">
        <ele>1268.26</ele>
        <time>2016-10-20T08:16:45.828Z</time>
      </trkpt>
      <trkpt lat="44.56314" lon="5.60066">
        <ele>1265.96</ele>
        <time>2016-10-20T08:17:12.167Z</time>
      </trkpt>
      <trkpt lat="44.56335" lon="5.6008">
        <ele>1264.23</ele>
        <time>2016-10-20T08:17:33.128Z</time>
      </trkpt>
      <trkpt lat="44.56353" lon="5.60102">
        <ele>1266.02</ele>
        <time>2016-10-20T08:17:48.034Z</time>
      </trkpt>
      <trkpt lat="44.56375" lon="5.60115">
        <ele>1262.02</ele>
        <time>2016-10-20T08:18:03.027Z</time>
      </trkpt>
      <trkpt lat="44.56391" lon="5.60139">
        <ele>1264.46</ele>
        <time>2016-10-20T08:18:26.042Z</time>
      </trkpt>
      <trkpt lat="44.56411" lon="5.60159">
        <ele>1264.7</ele>
        <time>2016-10-20T08:18:43.068Z</time>
      </trkpt>
      <trkpt lat="44.56432" lon="5.60171">
        <ele>1263.56</ele>
        <time>2016-10-20T08:19:07.017Z</time>
      </trkpt>
      <trkpt lat="44.56456" lon="5.60172">
        <ele>1257.63</ele>
        <time>2016-10-20T08:19:29.021Z</time>
      </trkpt>
      <trkpt lat="44.56479" lon="5.6017">
        <ele>1252.39</ele>
        <time>2016-10-20T08:19:54.051Z</time>
      </trkpt>
      <trkpt lat="44.56502" lon="5.60175">
        <ele>1251.28</ele>
        <time>2016-10-20T08:20:15.134Z</time>
      </trkpt>
      <trkpt lat="44.56525" lon="5.60176">
        <ele>1251.09</ele>
        <time>2016-10-20T08:20:31.131Z</time>
      </trkpt>
      <trkpt lat="44.56548" lon="5.60179">
        <ele>1253.16</ele>
        <time>2016-10-20T08:20:51.040Z</time>
      </trkpt>
      <trkpt lat="44.56569" lon="5.60167">
        <ele>1249.01</ele>
        <time>2016-10-20T08:21:13.092Z</time>
      </trkpt>
      <trkpt lat="44.56591" lon="5.60172">
        <ele>1250.57</ele>
        <time>2016-10-20T08:21:31.112Z</time>
      </trkpt>
      <trkpt lat="44.56613" lon="5.6016">
        <ele>1244.76</ele>
        <time>2016-10-20T08:21:55.041Z</time>
      </trkpt>
      <trkpt lat="44.56635" lon="5.60162">
        <ele>1243.57</ele>
        <time>2016-10-20T08:22:22.082Z</time>
      </trkpt>
      <trkpt lat="44.56657" lon="5.60174">
        <ele>1246.7</ele>
        <time>2016-10-20T08:22:48.038Z</time>
      </trkpt>
      <trkpt lat="44.56681" lon="5.60176">
        <ele>1248.09</ele>
        <time>2016-10-20T08:23:00.096Z</time>
      </trkpt>
      <trkpt lat="44.56705" lon="5.60177">
        <ele>1249.81</ele>
        <time>2016-10-20T08:23:20.041Z</time>
      </trkpt>
      <trkpt lat="44.56726" lon="5.60166">
        <ele>1247.93</ele>
        <time>2016-10-20T08:23:35.042Z</time>
      </trkpt>
      <trkpt lat="44.56747" lon="5.60152">
        <ele>1245.44</ele>
        <time>2016-10-20T08:23:59.064Z</time>
      </trkpt>
      <trkpt lat="44.56765" lon="5.60132">
        <ele>1240.95</ele>
        <time>2016-10-20T08:24:12.841Z</time>
      </trkpt>
      <trkpt lat="44.56787" lon="5.60134">
        <ele>1245.44</ele>
        <time>2016-10-20T08:24:31.039Z</time>
      </trkpt>
      <trkpt lat="44.56806" lon="5.60113">
        <ele>1242.57</ele>
        <time>2016-10-20T08:24:47.836Z</time>
      </trkpt>
      <trkpt lat="44.56819" lon="5.60087">
        <ele>1238.27</ele>
        <time>2016-10-20T08:25:08.156Z</time>
      </trkpt>
      <trkpt lat="44.56836" lon="5.60067">
        <ele>1236.62</ele>
        <time>2016-10-20T08:25:26.048Z</time>
      </trkpt>
      <trkpt lat="44.56853" lon="5.60046">
        <ele>1234.56</ele>
        <time>2016-10-20T08:26:13.091Z</time>
      </trkpt>
      <trkpt lat="44.56876" lon="5.60035">
        <ele>1234.88</ele>
        <time>2016-10-20T08:26:28.087Z</time>
      </trkpt>
      <trkpt lat="44.56901" lon="5.60032">
        <ele>1236.5</ele>
        <time>2016-10-20T08:26:41.088Z</time>
      </trkpt>
      <trkpt lat="44.56915" lon="5.60006">
        <ele>1233</ele>
        <time>2016-10-20T08:27:00.104Z</time>
      </trkpt>
      <trkpt lat="44.56934" lon="5.59987">
        <ele>1231.41</ele>
        <time>2016-10-20T08:27:16.823Z</time>
      </trkpt>
      <trkpt lat="44.56953" lon="5.5997">
        <ele>1230.12</ele>
        <time>2016-10-20T08:27:36.094Z</time>
      </trkpt>
      <trkpt lat="44.56975" lon="5.59983">
        <ele>1234.21</ele>
        <time>2016-10-20T08:28:00.099Z</time>
      </trkpt>
      <trkpt lat="44.56997" lon="5.59992">
        <ele>1237.23</ele>
        <time>2016-10-20T08:28:24.117Z</time>
      </trkpt>
      <trkpt lat="44.57019" lon="5.59998">
        <ele>1239.07</ele>
        <time>2016-10-20T08:28:40.133Z</time>
      </trkpt>
      <trkpt lat="44.57042" lon="5.59989">
        <ele>1237.37</ele>
        <time>2016-10-20T08:29:00.972Z</time>
      </trkpt>
      <trkpt lat="44.57065" lon="5.60002">
        <ele>1239.59</ele>
        <time>2016-10-20T08:29:54.090Z</time>
      </trkpt>
      <trkpt lat="44.57084" lon="5.60022">
        <ele>1242.18</ele>
        <time>2016-10-20T08:30:15.023Z</time>
      </trkpt>
      <trkpt lat="44.57103" lon="5.60044">
        <ele>1243.4</ele>
        <time>2016-10-20T08:30:29.112Z</time>
      </trkpt>
      <trkpt lat="44.57123" lon="5.60059">
        <ele>1241.91</ele>
        <time>2016-10-20T08:30:50.083Z</time>
      </trkpt>
      <trkpt lat="44.57141" lon="5.60081">
        <ele>1242.74</ele>
        <time>2016-10-20T08:31:07.127Z</time>
      </trkpt>
      <trkpt lat="44.57149" lon="5.60112">
        <ele>1248.62</ele>
        <time>2016-10-20T08:31:35.095Z</time>
      </trkpt>
      <trkpt lat="44.57165" lon="5.60134">
        <ele>1252.29</ele>
        <time>2016-10-20T08:32:02.146Z</time>
      </trkpt>
      <trkpt lat="44.57179" lon="5.6016">
        <ele>1258.4</ele>
        <time>2016-10-20T08:32:30.092Z</time>
      </trkpt>
      <trkpt lat="44.57197" lon="5.60183">
        <ele>1264.32</ele>
        <time>2016-10-20T08:32:55.087Z</time>
      </trkpt>
      <trkpt lat="44.57219" lon="5.6019">
        <ele>1266.24</ele>
        <time>2016-10-20T08:33:16.092Z</time>
      </trkpt>
      <trkpt lat="44.57241" lon="5.60182">
        <ele>1263.85</ele>
        <time>2016-10-20T08:33:36.022Z</time>
      </trkpt>
      <trkpt lat="44.57265" lon="5.6018">
        <ele>1262.83</ele>
        <time>2016-10-20T08:33:52.095Z</time>
      </trkpt>
      <trkpt lat="44.57285" lon="5.60165">
        <ele>1260.38</ele>
        <time>2016-10-20T08:34:22.084Z</time>
      </trkpt>
      <trkpt lat="44.57308" lon="5.60174">
        <ele>1261.53</ele>
        <time>2016-10-20T08:35:07.291Z</time>
      </trkpt>
      <trkpt lat="44.5733" lon="5.60188">
        <ele>1260.59</ele>
        <time>2016-10-20T08:35:20.033Z</time>
      </trkpt>
      <trkpt lat="44.57347" lon="5.60208">
        <ele>1257.84</ele>
        <time>2016-10-20T08:35:46.033Z</time>
      </trkpt>
      <trkpt lat="44.57365" lon="5.60228">
        <ele>1253.61</ele>
        <time>2016-10-20T08:36:14.840Z</time>
      </trkpt>
      <trkpt lat="44.57385" lon="5.60245">
        <ele>1247.79</ele>
        <time>2016-10-20T08:36:33.102Z</time>
      </trkpt>
      <trkpt lat="44.57408" lon="5.60255">
        <ele>1240.06</ele>
        <time>2016-10-20T08:36:58.036Z</time>
      </trkpt>
      <trkpt lat="44.57429" lon="5.60267">
        <ele>1234.03</ele>
        <time>2016-10-20T08:37:22.102Z</time>
      </trkpt>
      <trkpt lat="44.57451" lon="5.60276">
        <ele>1227.45</ele>
        <time>2016-10-20T08:37:43.030Z</time>
      </trkpt>
      <trkpt lat="44.57473" lon="5.60286">
        <ele>1220.58</ele>
        <time>2016-10-20T08:38:05.827Z</time>
      </trkpt>
      <trkpt lat="44.57492" lon="5.60306">
        <ele>1218.32</ele>
        <time>2016-10-20T08:38:22.097Z</time>
      </trkpt>
      <trkpt lat="44.57514" lon="5.60308">
        <ele>1210.3</ele>
        <time>2016-10-20T08:38:40.037Z</time>
      </trkpt>
      <trkpt lat="44.57537" lon="5.60309">
        <ele>1202.68</ele>
        <time>2016-10-20T08:39:00.968Z</time>
      </trkpt>
      <trkpt lat="44.57561" lon="5.60315">
        <ele>1195.94</ele>
        <time>2016-10-20T08:39:17.836Z</time>
      </trkpt>
      <trkpt lat="44.57583" lon="5.6033">
        <ele>1193.32</ele>
        <time>2016-10-20T08:39:37.838Z</time>
      </trkpt>
      <trkpt lat="44.57602" lon="5.60345">
        <ele>1191.78</ele>
        <time>2016-10-20T08:40:03.895Z</time>
      </trkpt>
      <trkpt lat="44.57626" lon="5.60347">
        <ele>1184.93</ele>
        <time>2016-10-20T08:40:24.072Z</time>
      </trkpt>
      <trkpt lat="44.57648" lon="5.60357">
        <ele>1181.56</ele>
        <time>2016-10-20T08:40:36.037Z</time>
      </trkpt>
      <trkpt lat="44.57668" lon="5.60378">
        <ele>1182.07</ele>
        <time>2016-10-20T08:41:10.825Z</time>
      </trkpt>
      <trkpt lat="44.57686" lon="5.60397">
        <ele>1180.68</ele>
        <time>2016-10-20T08:41:24.060Z</time>
      </trkpt>
      <trkpt lat="44.57701" lon="5.60422">
        <ele>1180.49</ele>
        <time>2016-10-20T08:41:45.054Z</time>
      </trkpt>
      <trkpt lat="44.57706" lon="5.60454">
        <ele>1185.43</ele>
        <time>2016-10-20T08:42:07.106Z</time>
      </trkpt>
      <trkpt lat="44.57714" lon="5.60486">
        <ele>1188.82</ele>
        <time>2016-10-20T08:42:20.840Z</time>
      </trkpt>
      <trkpt lat="44.57711" lon="5.60517">
        <ele>1196.36</ele>
        <time>2016-10-20T08:42:45.036Z</time>
      </trkpt>
      <trkpt lat="44.57717" lon="5.60548">
        <ele>1200.01</ele>
        <time>2016-10-20T08:43:03.970Z</time>
      </trkpt>
      <trkpt lat="44.57699" lon="5.60569">
        <ele>1209.24</ele>
        <time>2016-10-20T08:43:31.031Z</time>
      </trkpt>
      <trkpt lat="44.57722" lon="5.60567">
        <ele>1203.42</ele>
        <time>2016-10-20T08:43:57.099Z</time>
      </trkpt>
      <trkpt lat="44.57741" lon="5.60584">
        <ele>1207.21</ele>
        <time>2016-10-20T08:44:50.862Z</time>
      </trkpt>
      <trkpt lat="44.57718" lon="5.60586">
        <ele>1209.88</ele>
        <time>2016-10-20T08:49:09.141Z</time>
      </trkpt>
      <trkpt lat="44.57696" lon="5.60593">
        <ele>1215.9</ele>
        <time>2016-10-20T08:49:22.122Z</time>
      </trkpt>
      <trkpt lat="44.57677" lon="5.60614">
        <ele>1224.3</ele>
        <time>2016-10-20T08:50:32.185Z</time>
      </trkpt>
      <trkpt lat="44.57671" lon="5.60648">
        <ele>1233.06</ele>
        <time>2016-10-20T08:50:40.090Z</time>
      </trkpt>
      <trkpt lat="44.57655" lon="5.60671">
        <ele>1239.75</ele>
        <time>2016-10-20T08:51:15.098Z</time>
      </trkpt>
      <trkpt lat="44.57632" lon="5.60677">
        <ele>1243.83</ele>
        <time>2016-10-20T08:51:54.141Z</time>
      </trkpt>
      <trkpt lat="44.57621" lon="5.60705">
        <ele>1251.76</ele>
        <time>2016-10-20T08:53:47.213Z</time>
      </trkpt>
      <trkpt lat="44.57623" lon="5.6074">
        <ele>1261.05</ele>
        <time>2016-10-20T08:54:41.868Z</time>
      </trkpt>
      <trkpt lat="44.57634" lon="5.60769">
        <ele>1270.63</ele>
        <time>2016-10-20T08:55:59.028Z</time>
      </trkpt>
      <trkpt lat="44.57622" lon="5.60796">
        <ele>1280.42</ele>
        <time>2016-10-20T08:57:22.831Z</time>
      </trkpt>
      <trkpt lat="44.57614" lon="5.60826">
        <ele>1291.46</ele>
        <time>2016-10-20T08:58:29.111Z</time>
      </trkpt>
      <trkpt lat="44.57603" lon="5.60858">
        <ele>1301.29</ele>
        <time>2016-10-20T09:00:22.157Z</time>
      </trkpt>
      <trkpt lat="44.57603" lon="5.60892">
        <ele>1310.81</ele>
        <time>2016-10-20T09:00:37.839Z</time>
      </trkpt>
      <trkpt lat="44.57608" lon="5.60924">
        <ele>1320.34</ele>
        <time>2016-10-20T09:02:57.268Z</time>
      </trkpt>
      <trkpt lat="44.57609" lon="5.6096">
        <ele>1330.68</ele>
        <time>2016-10-20T09:03:36.044Z</time>
      </trkpt>
      <trkpt lat="44.57602" lon="5.6099">
        <ele>1338.42</ele>
        <time>2016-10-20T09:03:40.115Z</time>
      </trkpt>
      <trkpt lat="44.57596" lon="5.61022">
        <ele>1347.55</ele>
        <time>2016-10-20T09:04:53.040Z</time>
      </trkpt>
      <trkpt lat="44.57579" lon="5.61043">
        <ele>1352</ele>
        <time>2016-10-20T09:05:24.095Z</time>
      </trkpt>
      <trkpt lat="44.57568" lon="5.61072">
        <ele>1361.03</ele>
        <time>2016-10-20T09:07:22.136Z</time>
      </trkpt>
      <trkpt lat="44.57549" lon="5.61098">
        <ele>1366.47</ele>
        <time>2016-10-20T09:07:31.028Z</time>
      </trkpt>
      <trkpt lat="44.57532" lon="5.61118">
        <ele>1370.02</ele>
        <time>2016-10-20T09:08:58.923Z</time>
      </trkpt>
      <trkpt lat="44.57517" lon="5.61143">
        <ele>1375.45</ele>
        <time>2016-10-20T09:09:17.064Z</time>
      </trkpt>
      <trkpt lat="44.57522" lon="5.61176">
        <ele>1386.87</ele>
        <time>2016-10-20T09:21:17.667Z</time>
      </trkpt>
      <trkpt lat="44.57528" lon="5.61215">
        <ele>1401.6</ele>
        <time>2016-10-20T09:21:25.861Z</time>
      </trkpt>
      <trkpt lat="44.57539" lon="5.61242">
        <ele>1415.51</ele>
        <time>2016-10-20T09:21:32.691Z</time>
      </trkpt>
      <trkpt lat="44.57535" lon="5.61277">
        <ele>1426.14</ele>
        <time>2016-10-20T09:21:43.868Z</time>
      </trkpt>
      <trkpt lat="44.57522" lon="5.61304">
        <ele>1431.36</ele>
        <time>2016-10-20T09:21:59.866Z</time>
      </trkpt>
      <trkpt lat="44.57527" lon="5.61335">
        <ele>1443.78</ele>
        <time>2016-10-20T09:22:17.045Z</time>
      </trkpt>
      <trkpt lat="44.57506" lon="5.61345">
        <ele>1440.86</ele>
        <time>2016-10-20T09:24:35.948Z</time>
      </trkpt>
      <trkpt lat="44.57487" lon="5.61363">
        <ele>1442.57</ele>
        <time>2016-10-20T09:24:47.860Z</time>
      </trkpt>
      <trkpt lat="44.57483" lon="5.61399">
        <ele>1452.19</ele>
        <time>2016-10-20T09:24:57.014Z</time>
      </trkpt>
      <trkpt lat="44.57463" lon="5.61415">
        <ele>1454.54</ele>
        <time>2016-10-20T09:25:15.873Z</time>
      </trkpt>
      <trkpt lat="44.57446" lon="5.61438">
        <ele>1459.88</ele>
        <time>2016-10-20T09:26:47.670Z</time>
      </trkpt>
      <trkpt lat="44.57428" lon="5.61462">
        <ele>1465.59</ele>
        <time>2016-10-20T09:26:57.668Z</time>
      </trkpt>
      <trkpt lat="44.57427" lon="5.61496">
        <ele>1472.29</ele>
        <time>2016-10-20T09:30:35.727Z</time>
      </trkpt>
      <trkpt lat="44.57403" lon="5.61512">
        <ele>1475.3</ele>
        <time>2016-10-20T09:30:41.948Z</time>
      </trkpt>
      <trkpt lat="44.57397" lon="5.61543">
        <ele>1478.89</ele>
        <time>2016-10-20T09:30:58.975Z</time>
      </trkpt>
      <trkpt lat="44.57413" lon="5.61567">
        <ele>1480.85</ele>
        <time>2016-10-20T09:34:18.875Z</time>
      </trkpt>
      <trkpt lat="44.57436" lon="5.6157">
        <ele>1483.56</ele>
        <time>2016-10-20T09:34:39.835Z</time>
      </trkpt>
      <trkpt lat="44.57459" lon="5.61562">
        <ele>1486.34</ele>
        <time>2016-10-20T09:35:00.841Z</time>
      </trkpt>
      <trkpt lat="44.57476" lon="5.61587">
        <ele>1492.48</ele>
        <time>2016-10-20T09:36:12.660Z</time>
      </trkpt>
      <trkpt lat="44.57499" lon="5.61586">
        <ele>1497.91</ele>
        <time>2016-10-20T09:36:30.835Z</time>
      </trkpt>
      <trkpt lat="44.57516" lon="5.61607">
        <ele>1503.59</ele>
        <time>2016-10-20T09:37:24.839Z</time>
      </trkpt>
      <trkpt lat="44.57539" lon="5.6161">
        <ele>1510.2</ele>
        <time>2016-10-20T09:37:45.841Z</time>
      </trkpt>
      <trkpt lat="44.57561" lon="5.61611">
        <ele>1517.15</ele>
        <time>2016-10-20T09:40:21.608Z</time>
      </trkpt>
      <trkpt lat="44.57584" lon="5.616">
        <ele>1524.53</ele>
        <time>2016-10-20T09:41:20.840Z</time>
      </trkpt>
      <trkpt lat="44.57607" lon="5.61596">
        <ele>1532.96</ele>
        <time>2016-10-20T09:42:27.654Z</time>
      </trkpt>
      <trkpt lat="44.5763" lon="5.61596">
        <ele>1541.66</ele>
        <time>2016-10-20T09:44:44.631Z</time>
      </trkpt>
      <trkpt lat="44.5765" lon="5.61579">
        <ele>1548.89</ele>
        <time>2016-10-20T09:45:45.944Z</time>
      </trkpt>
      <trkpt lat="44.57673" lon="5.61576">
        <ele>1555.15</ele>
        <time>2016-10-20T09:47:31.870Z</time>
      </trkpt>
      <trkpt lat="44.57687" lon="5.61602">
        <ele>1557.46</ele>
        <time>2016-10-20T09:50:06.659Z</time>
      </trkpt>
      <trkpt lat="44.57709" lon="5.61589">
        <ele>1560.99</ele>
        <time>2016-10-20T09:55:11.872Z</time>
      </trkpt>
      <trkpt lat="44.57732" lon="5.61595">
        <ele>1563.27</ele>
        <time>2016-10-20T09:55:27.660Z</time>
      </trkpt>
      <trkpt lat="44.57755" lon="5.616">
        <ele>1565.68</ele>
        <time>2016-10-20T09:55:43.838Z</time>
      </trkpt>
      <trkpt lat="44.57778" lon="5.61599">
        <ele>1568</ele>
        <time>2016-10-20T09:56:05.832Z</time>
      </trkpt>
      <trkpt lat="44.57799" lon="5.61607">
        <ele>1569.88</ele>
        <time>2016-10-20T09:56:25.838Z</time>
      </trkpt>
      <trkpt lat="44.57822" lon="5.61606">
        <ele>1572.38</ele>
        <time>2016-10-20T09:57:22.657Z</time>
      </trkpt>
      <trkpt lat="44.57845" lon="5.61604">
        <ele>1575.83</ele>
        <time>2016-10-20T09:57:38.878Z</time>
      </trkpt>
      <trkpt lat="44.57868" lon="5.616">
        <ele>1580.59</ele>
        <time>2016-10-20T09:58:08.830Z</time>
      </trkpt>
      <trkpt lat="44.57891" lon="5.61597">
        <ele>1585.35</ele>
        <time>2016-10-20T09:58:36.863Z</time>
      </trkpt>
      <trkpt lat="44.57914" lon="5.616">
        <ele>1588.64</ele>
        <time>2016-10-20T09:59:07.651Z</time>
      </trkpt>
      <trkpt lat="44.57936" lon="5.61592">
        <ele>1589.33</ele>
        <time>2016-10-20T09:59:57.665Z</time>
      </trkpt>
      <trkpt lat="44.57959" lon="5.61596">
        <ele>1589.14</ele>
        <time>2016-10-20T10:01:18.832Z</time>
      </trkpt>
      <trkpt lat="44.57981" lon="5.6161">
        <ele>1588.26</ele>
        <time>2016-10-20T10:01:30.831Z</time>
      </trkpt>
      <trkpt lat="44.58003" lon="5.61622">
        <ele>1586</ele>
        <time>2016-10-20T10:01:49.832Z</time>
      </trkpt>
      <trkpt lat="44.58026" lon="5.61631">
        <ele>1581.92</ele>
        <time>2016-10-20T10:02:09.666Z</time>
      </trkpt>
      <trkpt lat="44.58047" lon="5.61643">
        <ele>1577.32</ele>
        <time>2016-10-20T10:02:32.669Z</time>
      </trkpt>
      <trkpt lat="44.58069" lon="5.61657">
        <ele>1572.82</ele>
        <time>2016-10-20T10:02:57.830Z</time>
      </trkpt>
      <trkpt lat="44.5809" lon="5.61669">
        <ele>1568.71</ele>
        <time>2016-10-20T10:03:35.829Z</time>
      </trkpt>
      <trkpt lat="44.58111" lon="5.61678">
        <ele>1563.88</ele>
        <time>2016-10-20T10:03:50.831Z</time>
      </trkpt>
      <trkpt lat="44.58134" lon="5.61689">
        <ele>1559.16</ele>
        <time>2016-10-20T10:04:08.824Z</time>
      </trkpt>
      <trkpt lat="44.58155" lon="5.61698">
        <ele>1555.52</ele>
        <time>2016-10-20T10:04:25.645Z</time>
      </trkpt>
      <trkpt lat="44.58178" lon="5.61705">
        <ele>1553.6</ele>
        <time>2016-10-20T10:04:39.843Z</time>
      </trkpt>
      <trkpt lat="44.58199" lon="5.61716">
        <ele>1554.06</ele>
        <time>2016-10-20T10:04:55.841Z</time>
      </trkpt>
      <trkpt lat="44.58219" lon="5.6173">
        <ele>1556.77</ele>
        <time>2016-10-20T10:05:13.831Z</time>
      </trkpt>
      <trkpt lat="44.58238" lon="5.61748">
        <ele>1560.68</ele>
        <time>2016-10-20T10:05:35.832Z</time>
      </trkpt>
      <trkpt lat="44.58259" lon="5.61761">
        <ele>1564.18</ele>
        <time>2016-10-20T10:06:02.646Z</time>
      </trkpt>
      <trkpt lat="44.58282" lon="5.61765">
        <ele>1567.93</ele>
        <time>2016-10-20T10:06:39.648Z</time>
      </trkpt>
      <trkpt lat="44.58305" lon="5.6177">
        <ele>1572.24</ele>
        <time>2016-10-20T10:08:13.832Z</time>
      </trkpt>
      <trkpt lat="44.58326" lon="5.61782">
        <ele>1576.61</ele>
        <time>2016-10-20T10:08:37.818Z</time>
      </trkpt>
      <trkpt lat="44.58349" lon="5.61784">
        <ele>1578.6</ele>
        <time>2016-10-20T10:09:02.656Z</time>
      </trkpt>
      <trkpt lat="44.58372" lon="5.61781">
        <ele>1578.81</ele>
        <time>2016-10-20T10:09:40.829Z</time>
      </trkpt>
      <trkpt lat="44.58395" lon="5.61786">
        <ele>1579.21</ele>
        <time>2016-10-20T10:10:08.820Z</time>
      </trkpt>
      <trkpt lat="44.58405" lon="5.61815">
        <ele>1584.61</ele>
        <time>2016-10-20T10:10:39.832Z</time>
      </trkpt>
      <trkpt lat="44.58399" lon="5.61846">
        <ele>1591.99</ele>
        <time>2016-10-20T10:11:39.839Z</time>
      </trkpt>
      <trkpt lat="44.58399" lon="5.61877">
        <ele>1599.55</ele>
        <time>2016-10-20T10:11:58.740Z</time>
      </trkpt>
      <trkpt lat="44.58404" lon="5.61908">
        <ele>1607.36</ele>
        <time>2016-10-20T10:12:25.648Z</time>
      </trkpt>
      <trkpt lat="44.58403" lon="5.61941">
        <ele>1615.5</ele>
        <time>2016-10-20T10:14:39.632Z</time>
      </trkpt>
      <trkpt lat="44.58404" lon="5.61972">
        <ele>1623.64</ele>
        <time>2016-10-20T10:15:57.652Z</time>
      </trkpt>
      <trkpt lat="44.58416" lon="5.61999">
        <ele>1629.88</ele>
        <time>2016-10-20T10:17:08.744Z</time>
      </trkpt>
      <trkpt lat="44.58431" lon="5.62024">
        <ele>1632.89</ele>
        <time>2016-10-20T10:18:15.833Z</time>
      </trkpt>
      <trkpt lat="44.58453" lon="5.62043">
        <ele>1634.72</ele>
        <time>2016-10-20T10:19:07.645Z</time>
      </trkpt>
      <trkpt lat="44.58465" lon="5.6207">
        <ele>1637.15</ele>
        <time>2016-10-20T10:19:52.619Z</time>
      </trkpt>
      <trkpt lat="44.58486" lon="5.62082">
        <ele>1637.65</ele>
        <time>2016-10-20T10:21:28.647Z</time>
      </trkpt>
      <trkpt lat="44.58507" lon="5.62097">
        <ele>1635.69</ele>
        <time>2016-10-20T10:22:22.646Z</time>
      </trkpt>
      <trkpt lat="44.58523" lon="5.62119">
        <ele>1632.18</ele>
        <time>2016-10-20T10:23:05.819Z</time>
      </trkpt>
      <trkpt lat="44.58542" lon="5.62138">
        <ele>1627.31</ele>
        <time>2016-10-20T10:23:25.642Z</time>
      </trkpt>
      <trkpt lat="44.58557" lon="5.62162">
        <ele>1624.88</ele>
        <time>2016-10-20T10:23:42.647Z</time>
      </trkpt>
      <trkpt lat="44.5857" lon="5.62188">
        <ele>1624.83</ele>
        <time>2016-10-20T10:23:57.631Z</time>
      </trkpt>
      <trkpt lat="44.58577" lon="5.62218">
        <ele>1628.53</ele>
        <time>2016-10-20T10:24:14.664Z</time>
      </trkpt>
      <trkpt lat="44.58581" lon="5.62249">
        <ele>1633.37</ele>
        <time>2016-10-20T10:24:38.611Z</time>
      </trkpt>
      <trkpt lat="44.58578" lon="5.62282">
        <ele>1640.19</ele>
        <time>2016-10-20T10:25:45.830Z</time>
      </trkpt>
      <trkpt lat="44.58567" lon="5.62313">
        <ele>1647.02</ele>
        <time>2016-10-20T10:26:44.797Z</time>
      </trkpt>
      <trkpt lat="44.58564" lon="5.62345">
        <ele>1651.53</ele>
        <time>2016-10-20T10:27:25.822Z</time>
      </trkpt>
      <trkpt lat="44.58561" lon="5.62377">
        <ele>1654.09</ele>
        <time>2016-10-20T10:28:42.630Z</time>
      </trkpt>
      <trkpt lat="44.58567" lon="5.62408">
        <ele>1656.04</ele>
        <time>2016-10-20T10:29:21.854Z</time>
      </trkpt>
      <trkpt lat="44.58568" lon="5.62441">
        <ele>1659.15</ele>
        <time>2016-10-20T10:29:46.853Z</time>
      </trkpt>
      <trkpt lat="44.58571" lon="5.62474">
        <ele>1662.63</ele>
        <time>2016-10-20T10:30:21.858Z</time>
      </trkpt>
      <trkpt lat="44.58584" lon="5.62499">
        <ele>1664.86</ele>
        <time>2016-10-20T10:32:28.614Z</time>
      </trkpt>
      <trkpt lat="44.5859" lon="5.6253">
        <ele>1668.29</ele>
        <time>2016-10-20T10:33:14.641Z</time>
      </trkpt>
      <trkpt lat="44.58606" lon="5.62551">
        <ele>1669.99</ele>
        <time>2016-10-20T10:33:29.674Z</time>
      </trkpt>
      <trkpt lat="44.58615" lon="5.62581">
        <ele>1672.5</ele>
        <time>2016-10-20T10:33:50.654Z</time>
      </trkpt>
      <trkpt lat="44.58629" lon="5.62608">
        <ele>1672.96</ele>
        <time>2016-10-20T10:34:11.890Z</time>
      </trkpt>
      <trkpt lat="44.58649" lon="5.62627">
        <ele>1672.28</ele>
        <time>2016-10-20T10:34:32.649Z</time>
      </trkpt>
      <trkpt lat="44.58669" lon="5.62644">
        <ele>1670.91</ele>
        <time>2016-10-20T10:34:50.845Z</time>
      </trkpt>
      <trkpt lat="44.58691" lon="5.62652">
        <ele>1667.42</ele>
        <time>2016-10-20T10:35:12.656Z</time>
      </trkpt>
      <trkpt lat="44.58715" lon="5.62659">
        <ele>1662.08</ele>
        <time>2016-10-20T10:35:35.828Z</time>
      </trkpt>
      <trkpt lat="44.58738" lon="5.62659">
        <ele>1656.45</ele>
        <time>2016-10-20T10:35:57.648Z</time>
      </trkpt>
      <trkpt lat="44.58759" lon="5.62668">
        <ele>1652.08</ele>
        <time>2016-10-20T10:36:22.647Z</time>
      </trkpt>
      <trkpt lat="44.58782" lon="5.62671">
        <ele>1646.83</ele>
        <time>2016-10-20T10:36:57.650Z</time>
      </trkpt>
      <trkpt lat="44.58805" lon="5.62665">
        <ele>1641.1</ele>
        <time>2016-10-20T10:37:22.687Z</time>
      </trkpt>
      <trkpt lat="44.58828" lon="5.62659">
        <ele>1636.09</ele>
        <time>2016-10-20T10:38:35.661Z</time>
      </trkpt>
      <trkpt lat="44.5885" lon="5.62655">
        <ele>1632.99</ele>
        <time>2016-10-20T10:39:01.896Z</time>
      </trkpt>
      <trkpt lat="44.58873" lon="5.62639">
        <ele>1630.59</ele>
        <time>2016-10-20T10:39:19.822Z</time>
      </trkpt>
      <trkpt lat="44.58896" lon="5.62637">
        <ele>1631.19</ele>
        <time>2016-10-20T10:40:26.859Z</time>
      </trkpt>
      <trkpt lat="44.58918" lon="5.62626">
        <ele>1632.3</ele>
        <time>2016-10-20T10:40:54.837Z</time>
      </trkpt>
      <trkpt lat="44.58937" lon="5.62609">
        <ele>1633.42</ele>
        <time>2016-10-20T10:42:22.645Z</time>
      </trkpt>
      <trkpt lat="44.58958" lon="5.62595">
        <ele>1633.55</ele>
        <time>2016-10-20T10:43:30.852Z</time>
      </trkpt>
      <trkpt lat="44.58979" lon="5.62603">
        <ele>1635.42</ele>
        <time>2016-10-20T10:44:08.640Z</time>
      </trkpt>
      <trkpt lat="44.58999" lon="5.62619">
        <ele>1637</ele>
        <time>2016-10-20T10:44:41.870Z</time>
      </trkpt>
      <trkpt lat="44.59014" lon="5.62644">
        <ele>1637.94</ele>
        <time>2016-10-20T10:45:04.638Z</time>
      </trkpt>
      <trkpt lat="44.59026" lon="5.62671">
        <ele>1637.26</ele>
        <time>2016-10-20T10:45:25.830Z</time>
      </trkpt>
      <trkpt lat="44.59041" lon="5.62695">
        <ele>1633.71</ele>
        <time>2016-10-20T10:45:58.859Z</time>
      </trkpt>
      <trkpt lat="44.59061" lon="5.62712">
        <ele>1630.55</ele>
        <time>2016-10-20T10:46:13.814Z</time>
      </trkpt>
      <trkpt lat="44.59079" lon="5.62733">
        <ele>1628.85</ele>
        <time>2016-10-20T10:46:31.896Z</time>
      </trkpt>
      <trkpt lat="44.59098" lon="5.62749">
        <ele>1628.34</ele>
        <time>2016-10-20T10:46:48.839Z</time>
      </trkpt>
      <trkpt lat="44.59119" lon="5.62761">
        <ele>1628.47</ele>
        <time>2016-10-20T10:47:07.811Z</time>
      </trkpt>
      <trkpt lat="44.59141" lon="5.62772">
        <ele>1628.86</ele>
        <time>2016-10-20T10:47:27.654Z</time>
      </trkpt>
      <trkpt lat="44.59163" lon="5.62772">
        <ele>1629.34</ele>
        <time>2016-10-20T10:47:47.649Z</time>
      </trkpt>
      <trkpt lat="44.59186" lon="5.62771">
        <ele>1629.2</ele>
        <time>2016-10-20T10:48:07.646Z</time>
      </trkpt>
      <trkpt lat="44.59209" lon="5.62771">
        <ele>1628.46</ele>
        <time>2016-10-20T10:48:27.652Z</time>
      </trkpt>
      <trkpt lat="44.59232" lon="5.62774">
        <ele>1627.8</ele>
        <time>2016-10-20T10:48:47.654Z</time>
      </trkpt>
      <trkpt lat="44.59256" lon="5.62776">
        <ele>1627.67</ele>
        <time>2016-10-20T10:49:12.646Z</time>
      </trkpt>
      <trkpt lat="44.59279" lon="5.62776">
        <ele>1628.08</ele>
        <time>2016-10-20T10:49:37.650Z</time>
      </trkpt>
      <trkpt lat="44.59302" lon="5.62769">
        <ele>1628.77</ele>
        <time>2016-10-20T10:49:54.652Z</time>
      </trkpt>
      <trkpt lat="44.59325" lon="5.62771">
        <ele>1629.88</ele>
        <time>2016-10-20T10:50:12.639Z</time>
      </trkpt>
      <trkpt lat="44.59348" lon="5.62767">
        <ele>1631.29</ele>
        <time>2016-10-20T10:50:30.851Z</time>
      </trkpt>
      <trkpt lat="44.59371" lon="5.62762">
        <ele>1633.24</ele>
        <time>2016-10-20T10:50:52.795Z</time>
      </trkpt>
      <trkpt lat="44.59394" lon="5.62758">
        <ele>1635.17</ele>
        <time>2016-10-20T10:51:12.704Z</time>
      </trkpt>
      <trkpt lat="44.59417" lon="5.62754">
        <ele>1636.49</ele>
        <time>2016-10-20T10:51:34.727Z</time>
      </trkpt>
      <trkpt lat="44.5944" lon="5.62752">
        <ele>1637.94</ele>
        <time>2016-10-20T10:51:55.705Z</time>
      </trkpt>
      <trkpt lat="44.59463" lon="5.62754">
        <ele>1639.75</ele>
        <time>2016-10-20T10:52:21.712Z</time>
      </trkpt>
      <trkpt lat="44.59487" lon="5.6276">
        <ele>1640.31</ele>
        <time>2016-10-20T10:52:44.663Z</time>
      </trkpt>
      <trkpt lat="44.59509" lon="5.62768">
        <ele>1637.97</ele>
        <time>2016-10-20T10:53:11.705Z</time>
      </trkpt>
      <trkpt lat="44.59522" lon="5.62794">
        <ele>1633.84</ele>
        <time>2016-10-20T10:53:39.707Z</time>
      </trkpt>
      <trkpt lat="44.59527" lon="5.62827">
        <ele>1628.26</ele>
        <time>2016-10-20T10:54:00.669Z</time>
      </trkpt>
      <trkpt lat="44.59531" lon="5.6286">
        <ele>1621.94</ele>
        <time>2016-10-20T10:54:34.782Z</time>
      </trkpt>
      <trkpt lat="44.59554" lon="5.62868">
        <ele>1615.17</ele>
        <time>2016-10-20T10:55:02.678Z</time>
      </trkpt>
      <trkpt lat="44.59577" lon="5.62869">
        <ele>1608.88</ele>
        <time>2016-10-20T10:55:21.702Z</time>
      </trkpt>
      <trkpt lat="44.59598" lon="5.62879">
        <ele>1601.06</ele>
        <time>2016-10-20T10:55:46.794Z</time>
      </trkpt>
      <trkpt lat="44.59619" lon="5.6289">
        <ele>1592.76</ele>
        <time>2016-10-20T10:56:08.704Z</time>
      </trkpt>
      <trkpt lat="44.5964" lon="5.62902">
        <ele>1584.34</ele>
        <time>2016-10-20T10:56:31.821Z</time>
      </trkpt>
      <trkpt lat="44.59663" lon="5.62896">
        <ele>1576.09</ele>
        <time>2016-10-20T10:56:55.643Z</time>
      </trkpt>
      <trkpt lat="44.59685" lon="5.62904">
        <ele>1567.61</ele>
        <time>2016-10-20T10:57:18.807Z</time>
      </trkpt>
      <trkpt lat="44.59708" lon="5.62908">
        <ele>1558.72</ele>
        <time>2016-10-20T10:57:38.708Z</time>
      </trkpt>
      <trkpt lat="44.5973" lon="5.62901">
        <ele>1549.1</ele>
        <time>2016-10-20T10:58:06.640Z</time>
      </trkpt>
      <trkpt lat="44.59753" lon="5.62893">
        <ele>1539.63</ele>
        <time>2016-10-20T11:00:44.707Z</time>
      </trkpt>
      <trkpt lat="44.59747" lon="5.62862">
        <ele>1538.75</ele>
        <time>2016-10-20T11:00:59.707Z</time>
      </trkpt>
      <trkpt lat="44.59741" lon="5.62831">
        <ele>1539.25</ele>
        <time>2016-10-20T11:01:22.690Z</time>
      </trkpt>
      <trkpt lat="44.59745" lon="5.62799">
        <ele>1535.85</ele>
        <time>2016-10-20T11:01:41.710Z</time>
      </trkpt>
      <trkpt lat="44.59745" lon="5.62766">
        <ele>1533.94</ele>
        <time>2016-10-20T11:02:03.767Z</time>
      </trkpt>
      <trkpt lat="44.59743" lon="5.62734">
        <ele>1532.49</ele>
        <time>2016-10-20T11:02:25.776Z</time>
      </trkpt>
      <trkpt lat="44.59736" lon="5.62703">
        <ele>1531.93</ele>
        <time>2016-10-20T11:02:47.685Z</time>
      </trkpt>
      <trkpt lat="44.59738" lon="5.6267">
        <ele>1525.26</ele>
        <time>2016-10-20T11:03:07.639Z</time>
      </trkpt>
      <trkpt lat="44.5973" lon="5.62638">
        <ele>1522.38</ele>
        <time>2016-10-20T11:03:29.701Z</time>
      </trkpt>
      <trkpt lat="44.59711" lon="5.6262">
        <ele>1526.8</ele>
        <time>2016-10-20T11:03:55.776Z</time>
      </trkpt>
      <trkpt lat="44.59702" lon="5.6259">
        <ele>1520.92</ele>
        <time>2016-10-20T11:04:05.687Z</time>
      </trkpt>
      <trkpt lat="44.59691" lon="5.62562">
        <ele>1516.37</ele>
        <time>2016-10-20T11:04:22.791Z</time>
      </trkpt>
      <trkpt lat="44.59687" lon="5.62527">
        <ele>1505.61</ele>
        <time>2016-10-20T11:04:31.717Z</time>
      </trkpt>
      <trkpt lat="44.59668" lon="5.62507">
        <ele>1504.99</ele>
        <time>2016-10-20T11:04:49.791Z</time>
      </trkpt>
      <trkpt lat="44.59651" lon="5.62487">
        <ele>1503.19</ele>
        <time>2016-10-20T11:05:06.674Z</time>
      </trkpt>
      <trkpt lat="44.59632" lon="5.62464">
        <ele>1500.78</ele>
        <time>2016-10-20T11:05:24.750Z</time>
      </trkpt>
      <trkpt lat="44.59619" lon="5.62438">
        <ele>1496.41</ele>
        <time>2016-10-20T11:05:44.719Z</time>
      </trkpt>
      <trkpt lat="44.5961" lon="5.62407">
        <ele>1490.4</ele>
        <time>2016-10-20T11:06:00.696Z</time>
      </trkpt>
      <trkpt lat="44.59594" lon="5.62385">
        <ele>1487.63</ele>
        <time>2016-10-20T11:06:18.673Z</time>
      </trkpt>
      <trkpt lat="44.59586" lon="5.62355">
        <ele>1482.3</ele>
        <time>2016-10-20T11:06:38.727Z</time>
      </trkpt>
      <trkpt lat="44.59577" lon="5.62325">
        <ele>1477.82</ele>
        <time>2016-10-20T11:06:57.713Z</time>
      </trkpt>
      <trkpt lat="44.59576" lon="5.62293">
        <ele>1474.13</ele>
        <time>2016-10-20T11:07:16.770Z</time>
      </trkpt>
      <trkpt lat="44.59573" lon="5.6226">
        <ele>1472.27</ele>
        <time>2016-10-20T11:07:45.820Z</time>
      </trkpt>
      <trkpt lat="44.59576" lon="5.62228">
        <ele>1473.94</ele>
        <time>2016-10-20T11:08:45.814Z</time>
      </trkpt>
      <trkpt lat="44.59586" lon="5.62199">
        <ele>1478.69</ele>
        <time>2016-10-20T11:09:38.959Z</time>
      </trkpt>
      <trkpt lat="44.59596" lon="5.62162">
        <ele>1484.75</ele>
        <time>2016-10-20T11:47:06.812Z</time>
      </trkpt>
      <trkpt lat="44.59603" lon="5.62132">
        <ele>1489.78</ele>
        <time>2016-10-20T11:47:10.819Z</time>
      </trkpt>
      <trkpt lat="44.59612" lon="5.62101">
        <ele>1494.58</ele>
        <time>2016-10-20T11:48:32.616Z</time>
      </trkpt>
      <trkpt lat="44.59602" lon="5.62072">
        <ele>1493.7</ele>
        <time>2016-10-20T11:49:57.652Z</time>
      </trkpt>
      <trkpt lat="44.59616" lon="5.62047">
        <ele>1493.87</ele>
        <time>2016-10-20T11:50:21.757Z</time>
      </trkpt>
      <trkpt lat="44.59633" lon="5.62023">
        <ele>1495.66</ele>
        <time>2016-10-20T11:50:52.615Z</time>
      </trkpt>
      <trkpt lat="44.59656" lon="5.62014">
        <ele>1501.01</ele>
        <time>2016-10-20T11:51:59.815Z</time>
      </trkpt>
      <trkpt lat="44.59674" lon="5.61992">
        <ele>1503.98</ele>
        <time>2016-10-20T11:52:35.863Z</time>
      </trkpt>
      <trkpt lat="44.59694" lon="5.61976">
        <ele>1505.94</ele>
        <time>2016-10-20T11:53:06.840Z</time>
      </trkpt>
      <trkpt lat="44.59711" lon="5.61953">
        <ele>1507.09</ele>
        <time>2016-10-20T11:53:26.813Z</time>
      </trkpt>
      <trkpt lat="44.59715" lon="5.6192">
        <ele>1508.09</ele>
        <time>2016-10-20T11:55:17.615Z</time>
      </trkpt>
      <trkpt lat="44.59721" lon="5.61888">
        <ele>1511.83</ele>
        <time>2016-10-20T11:56:04.656Z</time>
      </trkpt>
      <trkpt lat="44.59727" lon="5.61857">
        <ele>1516.79</ele>
        <time>2016-10-20T11:56:46.826Z</time>
      </trkpt>
      <trkpt lat="44.59745" lon="5.61836">
        <ele>1524.14</ele>
        <time>2016-10-20T11:57:44.839Z</time>
      </trkpt>
      <trkpt lat="44.59761" lon="5.61814">
        <ele>1530.64</ele>
        <time>2016-10-20T11:58:34.824Z</time>
      </trkpt>
      <trkpt lat="44.59778" lon="5.61793">
        <ele>1537.95</ele>
        <time>2016-10-20T11:59:41.858Z</time>
      </trkpt>
      <trkpt lat="44.59796" lon="5.61775">
        <ele>1546.42</ele>
        <time>2016-10-20T12:00:52.642Z</time>
      </trkpt>
      <trkpt lat="44.59817" lon="5.61763">
        <ele>1555.74</ele>
        <time>2016-10-20T12:01:35.810Z</time>
      </trkpt>
      <trkpt lat="44.59838" lon="5.61752">
        <ele>1564.53</ele>
        <time>2016-10-20T12:02:18.816Z</time>
      </trkpt>
      <trkpt lat="44.59858" lon="5.61734">
        <ele>1572.6</ele>
        <time>2016-10-20T12:03:10.617Z</time>
      </trkpt>
      <trkpt lat="44.59881" lon="5.61731">
        <ele>1579.78</ele>
        <time>2016-10-20T12:03:52.630Z</time>
      </trkpt>
      <trkpt lat="44.59903" lon="5.61721">
        <ele>1586.68</ele>
        <time>2016-10-20T12:04:20.610Z</time>
      </trkpt>
      <trkpt lat="44.59926" lon="5.61714">
        <ele>1592.32</ele>
        <time>2016-10-20T12:06:18.841Z</time>
      </trkpt>
      <trkpt lat="44.59948" lon="5.61712">
        <ele>1596.08</ele>
        <time>2016-10-20T12:06:42.614Z</time>
      </trkpt>
      <trkpt lat="44.59964" lon="5.61687">
        <ele>1600.51</ele>
        <time>2016-10-20T12:07:10.831Z</time>
      </trkpt>
      <trkpt lat="44.59983" lon="5.61666">
        <ele>1602.66</ele>
        <time>2016-10-20T12:08:09.918Z</time>
      </trkpt>
      <trkpt lat="44.6" lon="5.61644">
        <ele>1602.81</ele>
        <time>2016-10-20T12:08:28.848Z</time>
      </trkpt>
      <trkpt lat="44.60023" lon="5.6165">
        <ele>1599.76</ele>
        <time>2016-10-20T12:11:16.801Z</time>
      </trkpt>
      <trkpt lat="44.60045" lon="5.61657">
        <ele>1594.51</ele>
        <time>2016-10-20T12:11:59.813Z</time>
      </trkpt>
      <trkpt lat="44.60069" lon="5.61656">
        <ele>1587.36</ele>
        <time>2016-10-20T12:12:50.632Z</time>
      </trkpt>
      <trkpt lat="44.60092" lon="5.61657">
        <ele>1579.13</ele>
        <time>2016-10-20T12:13:19.814Z</time>
      </trkpt>
      <trkpt lat="44.60114" lon="5.61659">
        <ele>1569.31</ele>
        <time>2016-10-20T12:13:52.626Z</time>
      </trkpt>
      <trkpt lat="44.60118" lon="5.6169">
        <ele>1566.39</ele>
        <time>2016-10-20T12:14:25.814Z</time>
      </trkpt>
      <trkpt lat="44.60125" lon="5.6172">
        <ele>1559.66</ele>
        <time>2016-10-20T12:15:38.810Z</time>
      </trkpt>
      <trkpt lat="44.60132" lon="5.61751">
        <ele>1552.22</ele>
        <time>2016-10-20T12:16:25.598Z</time>
      </trkpt>
      <trkpt lat="44.60137" lon="5.61783">
        <ele>1544.91</ele>
        <time>2016-10-20T12:17:03.671Z</time>
      </trkpt>
      <trkpt lat="44.60137" lon="5.61816">
        <ele>1538.37</ele>
        <time>2016-10-20T12:17:34.608Z</time>
      </trkpt>
      <trkpt lat="44.60138" lon="5.61848">
        <ele>1531.02</ele>
        <time>2016-10-20T12:17:59.711Z</time>
      </trkpt>
      <trkpt lat="44.60143" lon="5.61879">
        <ele>1522.1</ele>
        <time>2016-10-20T12:18:28.839Z</time>
      </trkpt>
      <trkpt lat="44.60147" lon="5.6191">
        <ele>1513.46</ele>
        <time>2016-10-20T12:19:07.625Z</time>
      </trkpt>
      <trkpt lat="44.6016" lon="5.61938">
        <ele>1505.2</ele>
        <time>2016-10-20T12:20:07.619Z</time>
      </trkpt>
      <trkpt lat="44.60177" lon="5.61959">
        <ele>1498.77</ele>
        <time>2016-10-20T12:20:30.820Z</time>
      </trkpt>
      <trkpt lat="44.602" lon="5.61965">
        <ele>1493.85</ele>
        <time>2016-10-20T12:20:53.753Z</time>
      </trkpt>
      <trkpt lat="44.60224" lon="5.61974">
        <ele>1488.8</ele>
        <time>2016-10-20T12:21:13.833Z</time>
      </trkpt>
      <trkpt lat="44.60244" lon="5.61991">
        <ele>1485.7</ele>
        <time>2016-10-20T12:21:32.631Z</time>
      </trkpt>
      <trkpt lat="44.60264" lon="5.61974">
        <ele>1481.92</ele>
        <time>2016-10-20T12:22:11.839Z</time>
      </trkpt>
      <trkpt lat="44.6028" lon="5.61952">
        <ele>1476.44</ele>
        <time>2016-10-20T12:22:37.637Z</time>
      </trkpt>
      <trkpt lat="44.60294" lon="5.61926">
        <ele>1470.24</ele>
        <time>2016-10-20T12:23:09.850Z</time>
      </trkpt>
      <trkpt lat="44.60309" lon="5.61903">
        <ele>1464.04</ele>
        <time>2016-10-20T12:23:30.820Z</time>
      </trkpt>
      <trkpt lat="44.60326" lon="5.61879">
        <ele>1457.38</ele>
        <time>2016-10-20T12:23:56.819Z</time>
      </trkpt>
      <trkpt lat="44.60332" lon="5.61849">
        <ele>1451.33</ele>
        <time>2016-10-20T12:24:16.818Z</time>
      </trkpt>
      <trkpt lat="44.60336" lon="5.61816">
        <ele>1446.54</ele>
        <time>2016-10-20T12:24:38.713Z</time>
      </trkpt>
      <trkpt lat="44.60348" lon="5.61787">
        <ele>1442.07</ele>
        <time>2016-10-20T12:25:01.813Z</time>
      </trkpt>
      <trkpt lat="44.60353" lon="5.61756">
        <ele>1438.44</ele>
        <time>2016-10-20T12:25:25.707Z</time>
      </trkpt>
      <trkpt lat="44.60364" lon="5.61727">
        <ele>1434.21</ele>
        <time>2016-10-20T12:25:45.834Z</time>
      </trkpt>
      <trkpt lat="44.60373" lon="5.61697">
        <ele>1429.96</ele>
        <time>2016-10-20T12:26:06.810Z</time>
      </trkpt>
      <trkpt lat="44.60379" lon="5.61665">
        <ele>1425.22</ele>
        <time>2016-10-20T12:26:30.853Z</time>
      </trkpt>
      <trkpt lat="44.60388" lon="5.61633">
        <ele>1419.11</ele>
        <time>2016-10-20T12:26:54.822Z</time>
      </trkpt>
      <trkpt lat="44.60394" lon="5.61602">
        <ele>1412.83</ele>
        <time>2016-10-20T12:27:20.825Z</time>
      </trkpt>
      <trkpt lat="44.604" lon="5.6157">
        <ele>1406.07</ele>
        <time>2016-10-20T12:27:41.824Z</time>
      </trkpt>
      <trkpt lat="44.60406" lon="5.61537">
        <ele>1399.04</ele>
        <time>2016-10-20T12:28:02.600Z</time>
      </trkpt>
      <trkpt lat="44.60411" lon="5.61506">
        <ele>1392.32</ele>
        <time>2016-10-20T12:28:24.800Z</time>
      </trkpt>
      <trkpt lat="44.60429" lon="5.61487">
        <ele>1386.15</ele>
        <time>2016-10-20T12:28:42.774Z</time>
      </trkpt>
      <trkpt lat="44.60448" lon="5.61467">
        <ele>1382.29</ele>
        <time>2016-10-20T12:29:01.803Z</time>
      </trkpt>
      <trkpt lat="44.60456" lon="5.61435">
        <ele>1375.31</ele>
        <time>2016-10-20T12:29:24.748Z</time>
      </trkpt>
      <trkpt lat="44.60459" lon="5.61403">
        <ele>1367.71</ele>
        <time>2016-10-20T12:29:47.621Z</time>
      </trkpt>
      <trkpt lat="44.60464" lon="5.61372">
        <ele>1359.57</ele>
        <time>2016-10-20T12:30:11.820Z</time>
      </trkpt>
      <trkpt lat="44.6047" lon="5.6134">
        <ele>1350.53</ele>
        <time>2016-10-20T12:30:30.807Z</time>
      </trkpt>
      <trkpt lat="44.60469" lon="5.61307">
        <ele>1341.03</ele>
        <time>2016-10-20T12:30:57.603Z</time>
      </trkpt>
      <trkpt lat="44.60472" lon="5.61275">
        <ele>1330.93</ele>
        <time>2016-10-20T12:33:40.797Z</time>
      </trkpt>
      <trkpt lat="44.60466" lon="5.61244">
        <ele>1322.94</ele>
        <time>2016-10-20T12:35:59.815Z</time>
      </trkpt>
      <trkpt lat="44.60471" lon="5.61213">
        <ele>1314.65</ele>
        <time>2016-10-20T12:36:36.814Z</time>
      </trkpt>
      <trkpt lat="44.60455" lon="5.61188">
        <ele>1310.02</ele>
        <time>2016-10-20T12:36:57.619Z</time>
      </trkpt>
      <trkpt lat="44.60455" lon="5.61154">
        <ele>1301.4</ele>
        <time>2016-10-20T12:37:25.807Z</time>
      </trkpt>
      <trkpt lat="44.6045" lon="5.61122">
        <ele>1293.09</ele>
        <time>2016-10-20T12:37:48.671Z</time>
      </trkpt>
      <trkpt lat="44.60442" lon="5.61092">
        <ele>1285.54</ele>
        <time>2016-10-20T12:38:07.591Z</time>
      </trkpt>
      <trkpt lat="44.6043" lon="5.61066">
        <ele>1279.26</ele>
        <time>2016-10-20T12:38:24.800Z</time>
      </trkpt>
      <trkpt lat="44.60411" lon="5.61046">
        <ele>1274.07</ele>
        <time>2016-10-20T12:38:45.803Z</time>
      </trkpt>
      <trkpt lat="44.60403" lon="5.61016">
        <ele>1267.72</ele>
        <time>2016-10-20T12:39:01.612Z</time>
      </trkpt>
      <trkpt lat="44.60385" lon="5.60998">
        <ele>1263.25</ele>
        <time>2016-10-20T12:39:23.733Z</time>
      </trkpt>
      <trkpt lat="44.60367" lon="5.60976">
        <ele>1259.02</ele>
        <time>2016-10-20T12:39:43.658Z</time>
      </trkpt>
      <trkpt lat="44.60347" lon="5.60959">
        <ele>1255.86</ele>
        <time>2016-10-20T12:40:03.615Z</time>
      </trkpt>
      <trkpt lat="44.60328" lon="5.60941">
        <ele>1253.11</ele>
        <time>2016-10-20T12:40:23.619Z</time>
      </trkpt>
      <trkpt lat="44.60317" lon="5.60912">
        <ele>1249.09</ele>
        <time>2016-10-20T12:40:42.613Z</time>
      </trkpt>
      <trkpt lat="44.60315" lon="5.6088">
        <ele>1246.11</ele>
        <time>2016-10-20T12:41:01.774Z</time>
      </trkpt>
      <trkpt lat="44.60298" lon="5.60856">
        <ele>1240.92</ele>
        <time>2016-10-20T12:41:24.840Z</time>
      </trkpt>
      <trkpt lat="44.60278" lon="5.6084">
        <ele>1234.82</ele>
        <time>2016-10-20T12:41:43.853Z</time>
      </trkpt>
      <trkpt lat="44.60254" lon="5.60841">
        <ele>1231.58</ele>
        <time>2016-10-20T12:42:01.803Z</time>
      </trkpt>
      <trkpt lat="44.60232" lon="5.60853">
        <ele>1233.94</ele>
        <time>2016-10-20T12:42:20.814Z</time>
      </trkpt>
      <trkpt lat="44.60208" lon="5.60848">
        <ele>1234.75</ele>
        <time>2016-10-20T12:43:17.601Z</time>
      </trkpt>
      <trkpt lat="44.60188" lon="5.6083">
        <ele>1232.77</ele>
        <time>2016-10-20T12:43:29.816Z</time>
      </trkpt>
      <trkpt lat="44.60173" lon="5.60804">
        <ele>1229.24</ele>
        <time>2016-10-20T12:43:49.834Z</time>
      </trkpt>
      <trkpt lat="44.60167" lon="5.60772">
        <ele>1224.15</ele>
        <time>2016-10-20T12:44:25.612Z</time>
      </trkpt>
      <trkpt lat="44.60147" lon="5.60754">
        <ele>1224.88</ele>
        <time>2016-10-20T12:44:50.802Z</time>
      </trkpt>
      <trkpt lat="44.60134" lon="5.60728">
        <ele>1222.36</ele>
        <time>2016-10-20T12:45:11.821Z</time>
      </trkpt>
      <trkpt lat="44.60118" lon="5.60703">
        <ele>1219.64</ele>
        <time>2016-10-20T12:46:22.636Z</time>
      </trkpt>
      <trkpt lat="44.60099" lon="5.60686">
        <ele>1218.25</ele>
        <time>2016-10-20T12:46:46.815Z</time>
      </trkpt>
      <trkpt lat="44.60093" lon="5.60655">
        <ele>1210</ele>
        <time>2016-10-20T12:47:54.821Z</time>
      </trkpt>
      <trkpt lat="44.60092" lon="5.60619">
        <ele>1200.87</ele>
        <time>2016-10-20T12:50:53.803Z</time>
      </trkpt>
      <trkpt lat="44.60091" lon="5.60586">
        <ele>1194.7</ele>
        <time>2016-10-20T12:52:09.790Z</time>
      </trkpt>
      <trkpt lat="44.60069" lon="5.60597">
        <ele>1195.48</ele>
        <time>2016-10-20T12:52:42.655Z</time>
      </trkpt>
      <trkpt lat="44.60046" lon="5.60593">
        <ele>1193.78</ele>
        <time>2016-10-20T12:53:04.807Z</time>
      </trkpt>
      <trkpt lat="44.60024" lon="5.60587">
        <ele>1191.69</ele>
        <time>2016-10-20T12:53:22.803Z</time>
      </trkpt>
      <trkpt lat="44.60001" lon="5.60586">
        <ele>1190.4</ele>
        <time>2016-10-20T12:53:42.604Z</time>
      </trkpt>
      <trkpt lat="44.59978" lon="5.60583">
        <ele>1188.73</ele>
        <time>2016-10-20T12:54:00.662Z</time>
      </trkpt>
      <trkpt lat="44.59957" lon="5.60569">
        <ele>1186.1</ele>
        <time>2016-10-20T12:54:18.601Z</time>
      </trkpt>
      <trkpt lat="44.59934" lon="5.60573">
        <ele>1185.07</ele>
        <time>2016-10-20T12:54:35.604Z</time>
      </trkpt>
      <trkpt lat="44.59911" lon="5.60565">
        <ele>1183.36</ele>
        <time>2016-10-20T12:54:53.780Z</time>
      </trkpt>
      <trkpt lat="44.59886" lon="5.60563">
        <ele>1181.9</ele>
        <time>2016-10-20T12:55:10.617Z</time>
      </trkpt>
      <trkpt lat="44.59864" lon="5.60554">
        <ele>1179.39</ele>
        <time>2016-10-20T12:55:25.810Z</time>
      </trkpt>
      <trkpt lat="44.5985" lon="5.60527">
        <ele>1174.78</ele>
        <time>2016-10-20T12:55:40.796Z</time>
      </trkpt>
      <trkpt lat="44.59828" lon="5.60522">
        <ele>1172.92</ele>
        <time>2016-10-20T12:55:56.802Z</time>
      </trkpt>
      <trkpt lat="44.59805" lon="5.60518">
        <ele>1172.58</ele>
        <time>2016-10-20T12:56:14.707Z</time>
      </trkpt>
      <trkpt lat="44.5979" lon="5.60493">
        <ele>1167.46</ele>
        <time>2016-10-20T12:56:31.779Z</time>
      </trkpt>
      <trkpt lat="44.59776" lon="5.60463">
        <ele>1162.33</ele>
        <time>2016-10-20T12:56:50.801Z</time>
      </trkpt>
      <trkpt lat="44.59759" lon="5.6044">
        <ele>1158.47</ele>
        <time>2016-10-20T12:57:08.592Z</time>
      </trkpt>
      <trkpt lat="44.59742" lon="5.60419">
        <ele>1155.41</ele>
        <time>2016-10-20T12:57:24.640Z</time>
      </trkpt>
      <trkpt lat="44.59748" lon="5.60389">
        <ele>1156.56</ele>
        <time>2016-10-20T12:57:39.599Z</time>
      </trkpt>
      <trkpt lat="44.5973" lon="5.60368">
        <ele>1155.58</ele>
        <time>2016-10-20T12:58:22.619Z</time>
      </trkpt>
      <trkpt lat="44.59708" lon="5.60378">
        <ele>1150.85</ele>
        <time>2016-10-20T12:58:39.650Z</time>
      </trkpt>
      <trkpt lat="44.59694" lon="5.60352">
        <ele>1148.16</ele>
        <time>2016-10-20T12:58:53.753Z</time>
      </trkpt>
      <trkpt lat="44.59678" lon="5.6033">
        <ele>1145.36</ele>
        <time>2016-10-20T12:59:25.809Z</time>
      </trkpt>
      <trkpt lat="44.59667" lon="5.60302">
        <ele>1149.25</ele>
        <time>2016-10-20T12:59:39.830Z</time>
      </trkpt>
      <trkpt lat="44.59647" lon="5.60286">
        <ele>1149.18</ele>
        <time>2016-10-20T12:59:51.638Z</time>
      </trkpt>
      <trkpt lat="44.59626" lon="5.60273">
        <ele>1146.7</ele>
        <time>2016-10-20T13:00:10.628Z</time>
      </trkpt>
      <trkpt lat="44.59602" lon="5.60276">
        <ele>1138.45</ele>
        <time>2016-10-20T13:00:42.974Z</time>
      </trkpt>
      <trkpt lat="44.59585" lon="5.6025">
        <ele>1140.5</ele>
        <time>2016-10-20T13:01:03.969Z</time>
      </trkpt>
      <trkpt lat="44.59563" lon="5.60257">
        <ele>1133.5</ele>
        <time>2016-10-20T13:01:17.999Z</time>
      </trkpt>
      <trkpt lat="44.5954" lon="5.60255">
        <ele>1129.45</ele>
        <time>2016-10-20T13:01:32.974Z</time>
      </trkpt>
      <trkpt lat="44.5952" lon="5.60239">
        <ele>1128.22</ele>
        <time>2016-10-20T13:01:48.217Z</time>
      </trkpt>
      <trkpt lat="44.59498" lon="5.60227">
        <ele>1125.36</ele>
        <time>2016-10-20T13:02:01.984Z</time>
      </trkpt>
      <trkpt lat="44.59484" lon="5.60199">
        <ele>1127.62</ele>
        <time>2016-10-20T13:02:14.171Z</time>
      </trkpt>
      <trkpt lat="44.59464" lon="5.60184">
        <ele>1125.16</ele>
        <time>2016-10-20T13:02:29.224Z</time>
      </trkpt>
      <trkpt lat="44.59483" lon="5.60207">
        <ele>1125.66</ele>
        <time>2016-10-20T13:03:19.984Z</time>
      </trkpt>
      <trkpt lat="44.59487" lon="5.60239">
        <ele>1120.61</ele>
        <time>2016-10-20T13:03:36.016Z</time>
      </trkpt>
      <trkpt lat="44.59467" lon="5.60226">
        <ele>1117.15</ele>
        <time>2016-10-20T13:03:52.002Z</time>
      </trkpt>
      <trkpt lat="44.59444" lon="5.60218">
        <ele>1112.71</ele>
        <time>2016-10-20T13:04:07.974Z</time>
      </trkpt>
      <trkpt lat="44.59425" lon="5.602">
        <ele>1111.38</ele>
        <time>2016-10-20T13:04:23.196Z</time>
      </trkpt>
      <trkpt lat="44.5941" lon="5.60175">
        <ele>1112.16</ele>
        <time>2016-10-20T13:04:40.132Z</time>
      </trkpt>
      <trkpt lat="44.59398" lon="5.60147">
        <ele>1111.52</ele>
        <time>2016-10-20T13:05:02.112Z</time>
      </trkpt>
      <trkpt lat="44.59376" lon="5.60137">
        <ele>1106.39</ele>
        <time>2016-10-20T13:05:19.186Z</time>
      </trkpt>
      <trkpt lat="44.59357" lon="5.60118">
        <ele>1103.31</ele>
        <time>2016-10-20T13:05:32.993Z</time>
      </trkpt>
      <trkpt lat="44.59342" lon="5.60094">
        <ele>1101.41</ele>
        <time>2016-10-20T13:05:53.005Z</time>
      </trkpt>
      <trkpt lat="44.59329" lon="5.60068">
        <ele>1099.46</ele>
        <time>2016-10-20T13:06:14.185Z</time>
      </trkpt>
      <trkpt lat="44.59328" lon="5.60033">
        <ele>1099.87</ele>
        <time>2016-10-20T13:06:32.258Z</time>
      </trkpt>
      <trkpt lat="44.59343" lon="5.60009">
        <ele>1103.21</ele>
        <time>2016-10-20T13:07:21.992Z</time>
      </trkpt>
      <trkpt lat="44.59349" lon="5.59976">
        <ele>1104.27</ele>
        <time>2016-10-20T13:07:29.971Z</time>
      </trkpt>
      <trkpt lat="44.59366" lon="5.59954">
        <ele>1108.77</ele>
        <time>2016-10-20T13:07:45.997Z</time>
      </trkpt>
      <trkpt lat="44.59372" lon="5.59924">
        <ele>1111.37</ele>
        <time>2016-10-20T13:08:08.213Z</time>
      </trkpt>
      <trkpt lat="44.59359" lon="5.59897">
        <ele>1107.7</ele>
        <time>2016-10-20T13:08:30.982Z</time>
      </trkpt>
      <trkpt lat="44.59352" lon="5.59866">
        <ele>1106.78</ele>
        <time>2016-10-20T13:08:48.954Z</time>
      </trkpt>
      <trkpt lat="44.59339" lon="5.5984">
        <ele>1104.11</ele>
        <time>2016-10-20T13:09:08.046Z</time>
      </trkpt>
      <trkpt lat="44.59337" lon="5.59806">
        <ele>1107.89</ele>
        <time>2016-10-20T13:09:28.996Z</time>
      </trkpt>
      <trkpt lat="44.59324" lon="5.59778">
        <ele>1108.14</ele>
        <time>2016-10-20T13:09:43.113Z</time>
      </trkpt>
      <trkpt lat="44.5931" lon="5.59753">
        <ele>1107.17</ele>
        <time>2016-10-20T13:10:00.211Z</time>
      </trkpt>
      <trkpt lat="44.59289" lon="5.59738">
        <ele>1101.42</ele>
        <time>2016-10-20T13:10:25.065Z</time>
      </trkpt>
      <trkpt lat="44.59266" lon="5.5973">
        <ele>1093.67</ele>
        <time>2016-10-20T13:10:47.190Z</time>
      </trkpt>
      <trkpt lat="44.59249" lon="5.5971">
        <ele>1089.5</ele>
        <time>2016-10-20T13:11:10.229Z</time>
      </trkpt>
      <trkpt lat="44.59251" lon="5.59676">
        <ele>1094.12</ele>
        <time>2016-10-20T13:11:30.001Z</time>
      </trkpt>
      <trkpt lat="44.59257" lon="5.59644">
        <ele>1096.13</ele>
        <time>2016-10-20T13:11:52.990Z</time>
      </trkpt>
      <trkpt lat="44.59263" lon="5.59613">
        <ele>1095.62</ele>
        <time>2016-10-20T13:12:12.169Z</time>
      </trkpt>
      <trkpt lat="44.5926" lon="5.59581">
        <ele>1091.66</ele>
        <time>2016-10-20T13:12:35.233Z</time>
      </trkpt>
      <trkpt lat="44.59252" lon="5.5955">
        <ele>1086.44</ele>
        <time>2016-10-20T13:12:51.173Z</time>
      </trkpt>
      <trkpt lat="44.59254" lon="5.59518">
        <ele>1084.92</ele>
        <time>2016-10-20T13:13:06.231Z</time>
      </trkpt>
      <trkpt lat="44.59264" lon="5.59487">
        <ele>1085.79</ele>
        <time>2016-10-20T13:13:27.129Z</time>
      </trkpt>
      <trkpt lat="44.5927" lon="5.59456">
        <ele>1085.66</ele>
        <time>2016-10-20T13:13:48.004Z</time>
      </trkpt>
      <trkpt lat="44.59277" lon="5.59423">
        <ele>1085.05</ele>
        <time>2016-10-20T13:14:07.995Z</time>
      </trkpt>
      <trkpt lat="44.59278" lon="5.59391">
        <ele>1081.56</ele>
        <time>2016-10-20T13:14:25.187Z</time>
      </trkpt>
      <trkpt lat="44.59281" lon="5.59359">
        <ele>1078.99</ele>
        <time>2016-10-20T13:14:46.236Z</time>
      </trkpt>
      <trkpt lat="44.59288" lon="5.59327">
        <ele>1077.97</ele>
        <time>2016-10-20T13:15:02.131Z</time>
      </trkpt>
      <trkpt lat="44.59301" lon="5.59301">
        <ele>1080.04</ele>
        <time>2016-10-20T13:15:17.062Z</time>
      </trkpt>
      <trkpt lat="44.59306" lon="5.59268">
        <ele>1076.29</ele>
        <time>2016-10-20T13:15:36.174Z</time>
      </trkpt>
      <trkpt lat="44.59317" lon="5.59236">
        <ele>1075.44</ele>
        <time>2016-10-20T13:15:52.990Z</time>
      </trkpt>
      <trkpt lat="44.5933" lon="5.5921">
        <ele>1076.01</ele>
        <time>2016-10-20T13:16:14.256Z</time>
      </trkpt>
      <trkpt lat="44.59342" lon="5.5918">
        <ele>1074.5</ele>
        <time>2016-10-20T13:16:32.979Z</time>
      </trkpt>
      <trkpt lat="44.59355" lon="5.59154">
        <ele>1074.38</ele>
        <time>2016-10-20T13:16:49.166Z</time>
      </trkpt>
      <trkpt lat="44.59363" lon="5.59121">
        <ele>1069.54</ele>
        <time>2016-10-20T13:17:07.957Z</time>
      </trkpt>
      <trkpt lat="44.59366" lon="5.59089">
        <ele>1063.72</ele>
        <time>2016-10-20T13:17:27.999Z</time>
      </trkpt>
      <trkpt lat="44.59382" lon="5.59065">
        <ele>1064.41</ele>
        <time>2016-10-20T13:17:42.176Z</time>
      </trkpt>
      <trkpt lat="44.59399" lon="5.59045">
        <ele>1067.18</ele>
        <time>2016-10-20T13:17:57.135Z</time>
      </trkpt>
      <trkpt lat="44.59409" lon="5.59015">
        <ele>1065.87</ele>
        <time>2016-10-20T13:18:19.220Z</time>
      </trkpt>
      <trkpt lat="44.59423" lon="5.58986">
        <ele>1065.61</ele>
        <time>2016-10-20T13:18:31.978Z</time>
      </trkpt>
      <trkpt lat="44.59423" lon="5.58952">
        <ele>1059.41</ele>
        <time>2016-10-20T13:18:47.994Z</time>
      </trkpt>
      <trkpt lat="44.59423" lon="5.58919">
        <ele>1053.02</ele>
        <time>2016-10-20T13:19:04.181Z</time>
      </trkpt>
      <trkpt lat="44.5943" lon="5.58887">
        <ele>1048.61</ele>
        <time>2016-10-20T13:19:22.175Z</time>
      </trkpt>
      <trkpt lat="44.59449" lon="5.58869">
        <ele>1047.98</ele>
        <time>2016-10-20T13:19:37.187Z</time>
      </trkpt>
      <trkpt lat="44.59471" lon="5.5886">
        <ele>1048.45</ele>
        <time>2016-10-20T13:22:23.186Z</time>
      </trkpt>
      <trkpt lat="44.59494" lon="5.58851">
        <ele>1047.53</ele>
        <time>2016-10-20T13:22:44.290Z</time>
      </trkpt>
      <trkpt lat="44.59517" lon="5.5885">
        <ele>1047.91</ele>
        <time>2016-10-20T13:23:03.986Z</time>
      </trkpt>
      <trkpt lat="44.59543" lon="5.5885">
        <ele>1046.76</ele>
        <time>2016-10-20T13:23:25.210Z</time>
      </trkpt>
      <trkpt lat="44.59564" lon="5.58863">
        <ele>1050.12</ele>
        <time>2016-10-20T13:23:37.193Z</time>
      </trkpt>
      <trkpt lat="44.59588" lon="5.58858">
        <ele>1048.49</ele>
        <time>2016-10-20T13:23:54.988Z</time>
      </trkpt>
      <trkpt lat="44.59609" lon="5.58849">
        <ele>1045.82</ele>
        <time>2016-10-20T13:24:17.143Z</time>
      </trkpt>
      <trkpt lat="44.59632" lon="5.58848">
        <ele>1046.64</ele>
        <time>2016-10-20T13:24:30.215Z</time>
      </trkpt>
      <trkpt lat="44.59616" lon="5.58826">
        <ele>1038.14</ele>
        <time>2016-10-20T13:25:07.130Z</time>
      </trkpt>
      <trkpt lat="44.59609" lon="5.58794">
        <ele>1029.26</ele>
        <time>2016-10-20T13:25:36.170Z</time>
      </trkpt>
      <trkpt lat="44.59613" lon="5.58763">
        <ele>1022.24</ele>
        <time>2016-10-20T13:25:50.194Z</time>
      </trkpt>
      <trkpt lat="44.59592" lon="5.58745">
        <ele>1018.23</ele>
        <time>2016-10-20T13:26:23.978Z</time>
      </trkpt>
      <trkpt lat="44.59575" lon="5.58725">
        <ele>1013.29</ele>
        <time>2016-10-20T13:26:38.985Z</time>
      </trkpt>
      <trkpt lat="44.59569" lon="5.58694">
        <ele>1006.38</ele>
        <time>2016-10-20T13:26:57.993Z</time>
      </trkpt>
      <trkpt lat="44.59552" lon="5.58673">
        <ele>999.7</ele>
        <time>2016-10-20T13:27:24.082Z</time>
      </trkpt>
      <trkpt lat="44.59558" lon="5.58642">
        <ele>993.59</ele>
        <time>2016-10-20T13:27:45.192Z</time>
      </trkpt>
      <trkpt lat="44.59565" lon="5.5861">
        <ele>988.21</ele>
        <time>2016-10-20T13:28:06.113Z</time>
      </trkpt>
      <trkpt lat="44.59586" lon="5.58599">
        <ele>992.01</ele>
        <time>2016-10-20T13:28:36.952Z</time>
      </trkpt>
      <trkpt lat="44.59579" lon="5.58568">
        <ele>985.69</ele>
        <time>2016-10-20T13:29:19.139Z</time>
      </trkpt>
      <trkpt lat="44.5957" lon="5.5854">
        <ele>979.24</ele>
        <time>2016-10-20T13:29:37.986Z</time>
      </trkpt>
      <trkpt lat="44.59571" lon="5.58508">
        <ele>976.28</ele>
        <time>2016-10-20T13:29:51.184Z</time>
      </trkpt>
      <trkpt lat="44.59575" lon="5.58474">
        <ele>974</ele>
        <time>2016-10-20T13:30:08.972Z</time>
      </trkpt>
      <trkpt lat="44.59587" lon="5.58447">
        <ele>975.19</ele>
        <time>2016-10-20T13:30:30.106Z</time>
      </trkpt>
      <trkpt lat="44.59595" lon="5.58416">
        <ele>974.85</ele>
        <time>2016-10-20T13:30:50.188Z</time>
      </trkpt>
      <trkpt lat="44.59586" lon="5.58384">
        <ele>970.29</ele>
        <time>2016-10-20T13:31:10.212Z</time>
      </trkpt>
      <trkpt lat="44.59585" lon="5.58352">
        <ele>969.63</ele>
        <time>2016-10-20T13:31:24.200Z</time>
      </trkpt>
      <trkpt lat="44.59575" lon="5.58322">
        <ele>966.78</ele>
        <time>2016-10-20T13:31:49.984Z</time>
      </trkpt>
      <trkpt lat="44.59567" lon="5.58292">
        <ele>965.25</ele>
        <time>2016-10-20T13:32:10.038Z</time>
      </trkpt>
      <trkpt lat="44.59561" lon="5.58261">
        <ele>964.15</ele>
        <time>2016-10-20T13:32:22.985Z</time>
      </trkpt>
      <trkpt lat="44.5956" lon="5.58227">
        <ele>962.91</ele>
        <time>2016-10-20T13:32:37.987Z</time>
      </trkpt>
      <trkpt lat="44.59574" lon="5.58202">
        <ele>964.46</ele>
        <time>2016-10-20T13:32:57.982Z</time>
      </trkpt>
      <trkpt lat="44.59584" lon="5.58173">
        <ele>964.65</ele>
        <time>2016-10-20T13:33:16.208Z</time>
      </trkpt>
      <trkpt lat="44.59591" lon="5.58143">
        <ele>963.53</ele>
        <time>2016-10-20T13:33:32.988Z</time>
      </trkpt>
      <trkpt lat="44.59607" lon="5.58119">
        <ele>964.9</ele>
        <time>2016-10-20T13:34:02.130Z</time>
      </trkpt>
      <trkpt lat="44.5963" lon="5.58111">
        <ele>969.79</ele>
        <time>2016-10-20T13:34:22.975Z</time>
      </trkpt>
      <trkpt lat="44.59653" lon="5.58111">
        <ele>976.32</ele>
        <time>2016-10-20T13:34:40.198Z</time>
      </trkpt>
      <trkpt lat="44.59676" lon="5.58101">
        <ele>981.92</ele>
        <time>2016-10-20T13:35:17.978Z</time>
      </trkpt>
      <trkpt lat="44.59678" lon="5.58065">
        <ele>978.46</ele>
        <time>2016-10-20T13:35:32.963Z</time>
      </trkpt>
      <trkpt lat="44.59691" lon="5.58038">
        <ele>980.15</ele>
        <time>2016-10-20T13:35:54.192Z</time>
      </trkpt>
      <trkpt lat="44.59705" lon="5.58012">
        <ele>982.7</ele>
        <time>2016-10-20T13:36:08.988Z</time>
      </trkpt>
      <trkpt lat="44.59699" lon="5.5798">
        <ele>979.12</ele>
        <time>2016-10-20T13:36:31.194Z</time>
      </trkpt>
      <trkpt lat="44.59707" lon="5.5795">
        <ele>980.7</ele>
        <time>2016-10-20T13:36:47.977Z</time>
      </trkpt>
      <trkpt lat="44.59714" lon="5.5792">
        <ele>980.86</ele>
        <time>2016-10-20T13:37:16.201Z</time>
      </trkpt>
      <trkpt lat="44.59724" lon="5.5789">
        <ele>980.13</ele>
        <time>2016-10-20T13:37:32.135Z</time>
      </trkpt>
      <trkpt lat="44.59742" lon="5.57872">
        <ele>983.1</ele>
        <time>2016-10-20T13:37:53.994Z</time>
      </trkpt>
      <trkpt lat="44.59762" lon="5.57856">
        <ele>986.98</ele>
        <time>2016-10-20T13:38:22.996Z</time>
      </trkpt>
      <trkpt lat="44.59772" lon="5.57826">
        <ele>986.15</ele>
        <time>2016-10-20T13:38:45.201Z</time>
      </trkpt>
      <trkpt lat="44.59784" lon="5.57799">
        <ele>985.63</ele>
        <time>2016-10-20T13:39:02.126Z</time>
      </trkpt>
      <trkpt lat="44.59805" lon="5.57783">
        <ele>989.68</ele>
        <time>2016-10-20T13:39:22.185Z</time>
      </trkpt>
      <trkpt lat="44.59825" lon="5.57767">
        <ele>993.82</ele>
        <time>2016-10-20T13:39:45.201Z</time>
      </trkpt>
      <trkpt lat="44.59832" lon="5.57732">
        <ele>991.12</ele>
        <time>2016-10-20T13:40:12.997Z</time>
      </trkpt>
      <trkpt lat="44.5985" lon="5.57708">
        <ele>993.62</ele>
        <time>2016-10-20T13:40:42.107Z</time>
      </trkpt>
      <trkpt lat="44.59859" lon="5.57676">
        <ele>992.81</ele>
        <time>2016-10-20T13:41:12.171Z</time>
      </trkpt>
      <trkpt lat="44.59859" lon="5.57641">
        <ele>989.99</ele>
        <time>2016-10-20T13:41:36.151Z</time>
      </trkpt>
      <trkpt lat="44.5985" lon="5.57611">
        <ele>986.23</ele>
        <time>2016-10-20T13:42:05.161Z</time>
      </trkpt>
      <trkpt lat="44.59849" lon="5.57577">
        <ele>984.68</ele>
        <time>2016-10-20T13:42:14.105Z</time>
      </trkpt>
      <trkpt lat="44.59848" lon="5.57541">
        <ele>982.78</ele>
        <time>2016-10-20T13:42:31.195Z</time>
      </trkpt>
      <trkpt lat="44.59848" lon="5.57508">
        <ele>981.38</ele>
        <time>2016-10-20T13:42:46.183Z</time>
      </trkpt>
      <trkpt lat="44.59831" lon="5.57486">
        <ele>978.4</ele>
        <time>2016-10-20T13:43:17.127Z</time>
      </trkpt>
      <trkpt lat="44.5981" lon="5.57478">
        <ele>975.51</ele>
        <time>2016-10-20T13:43:37.980Z</time>
      </trkpt>
      <trkpt lat="44.59789" lon="5.5746">
        <ele>973.14</ele>
        <time>2016-10-20T13:43:52.132Z</time>
      </trkpt>
      <trkpt lat="44.59771" lon="5.57438">
        <ele>970.85</ele>
        <time>2016-10-20T13:44:14.220Z</time>
      </trkpt>
      <trkpt lat="44.59756" lon="5.57414">
        <ele>967.98</ele>
        <time>2016-10-20T13:44:31.089Z</time>
      </trkpt>
      <trkpt lat="44.59751" lon="5.57382">
        <ele>965.48</ele>
        <time>2016-10-20T13:45:35.980Z</time>
      </trkpt>
      <trkpt lat="44.5975" lon="5.57348">
        <ele>962.87</ele>
        <time>2016-10-20T13:45:50.953Z</time>
      </trkpt>
      <trkpt lat="44.59739" lon="5.57319">
        <ele>958.67</ele>
        <time>2016-10-20T13:46:07.127Z</time>
      </trkpt>
      <trkpt lat="44.59719" lon="5.57304">
        <ele>953.17</ele>
        <time>2016-10-20T13:46:27.182Z</time>
      </trkpt>
      <trkpt lat="44.59698" lon="5.57289">
        <ele>947.4</ele>
        <time>2016-10-20T13:46:47.992Z</time>
      </trkpt>
      <trkpt lat="44.59687" lon="5.5726">
        <ele>942.92</ele>
        <time>2016-10-20T13:47:10.169Z</time>
      </trkpt>
      <trkpt lat="44.59686" lon="5.57228">
        <ele>941.35</ele>
        <time>2016-10-20T13:47:26.059Z</time>
      </trkpt>
      <trkpt lat="44.59676" lon="5.57199">
        <ele>938.57</ele>
        <time>2016-10-20T13:47:42.123Z</time>
      </trkpt>
      <trkpt lat="44.59662" lon="5.57172">
        <ele>935.07</ele>
        <time>2016-10-20T13:48:02.203Z</time>
      </trkpt>
      <trkpt lat="44.59643" lon="5.57151">
        <ele>929.95</ele>
        <time>2016-10-20T13:48:21.184Z</time>
      </trkpt>
      <trkpt lat="44.59621" lon="5.57141">
        <ele>923.56</ele>
        <time>2016-10-20T13:48:39.196Z</time>
      </trkpt>
      <trkpt lat="44.59597" lon="5.57142">
        <ele>917.74</ele>
        <time>2016-10-20T13:48:57.982Z</time>
      </trkpt>
      <trkpt lat="44.59573" lon="5.57146">
        <ele>912.91</ele>
        <time>2016-10-20T13:49:16.166Z</time>
      </trkpt>
      <trkpt lat="44.59549" lon="5.57151">
        <ele>908.73</ele>
        <time>2016-10-20T13:49:32.967Z</time>
      </trkpt>
      <trkpt lat="44.59526" lon="5.57146">
        <ele>904.16</ele>
        <time>2016-10-20T13:49:52.189Z</time>
      </trkpt>
      <trkpt lat="44.59505" lon="5.57134">
        <ele>899.1</ele>
        <time>2016-10-20T13:50:07.979Z</time>
      </trkpt>
      <trkpt lat="44.59485" lon="5.57121">
        <ele>894.27</ele>
        <time>2016-10-20T13:50:23.994Z</time>
      </trkpt>
      <trkpt lat="44.59462" lon="5.57114">
        <ele>890.45</ele>
        <time>2016-10-20T13:50:42.975Z</time>
      </trkpt>
      <trkpt lat="44.59443" lon="5.57096">
        <ele>886.8</ele>
        <time>2016-10-20T13:51:00.233Z</time>
      </trkpt>
      <trkpt lat="44.59422" lon="5.57081">
        <ele>883.41</ele>
        <time>2016-10-20T13:51:19.193Z</time>
      </trkpt>
      <trkpt lat="44.59402" lon="5.57063">
        <ele>879.52</ele>
        <time>2016-10-20T13:51:37.121Z</time>
      </trkpt>
      <trkpt lat="44.59385" lon="5.57038">
        <ele>875.05</ele>
        <time>2016-10-20T13:51:56.138Z</time>
      </trkpt>
      <trkpt lat="44.5937" lon="5.57014">
        <ele>871.27</ele>
        <time>2016-10-20T13:52:12.184Z</time>
      </trkpt>
      <trkpt lat="44.59348" lon="5.57004">
        <ele>868.64</ele>
        <time>2016-10-20T13:52:31.183Z</time>
      </trkpt>
      <trkpt lat="44.59323" lon="5.57002">
        <ele>865.96</ele>
        <time>2016-10-20T13:52:47.985Z</time>
      </trkpt>
      <trkpt lat="44.593" lon="5.5699">
        <ele>862.76</ele>
        <time>2016-10-20T13:53:07.127Z</time>
      </trkpt>
      <trkpt lat="44.59278" lon="5.5698">
        <ele>859.53</ele>
        <time>2016-10-20T13:53:24.185Z</time>
      </trkpt>
      <trkpt lat="44.59258" lon="5.56965">
        <ele>856.03</ele>
        <time>2016-10-20T13:53:45.998Z</time>
      </trkpt>
      <trkpt lat="44.59241" lon="5.56945">
        <ele>852.26</ele>
        <time>2016-10-20T13:54:02.989Z</time>
      </trkpt>
      <trkpt lat="44.59224" lon="5.56923">
        <ele>848.34</ele>
        <time>2016-10-20T13:54:18.969Z</time>
      </trkpt>
      <trkpt lat="44.59207" lon="5.56902">
        <ele>844.45</ele>
        <time>2016-10-20T13:54:36.982Z</time>
      </trkpt>
      <trkpt lat="44.59188" lon="5.56921">
        <ele>842.39</ele>
        <time>2016-10-20T13:55:12.456Z</time>
      </trkpt>
      <trkpt lat="44.59178" lon="5.5695">
        <ele>842.36</ele>
        <time>2016-10-20T13:55:33.851Z</time>
      </trkpt>
      <trkpt lat="44.59159" lon="5.56931">
        <ele>838.54</ele>
        <time>2016-10-20T13:56:12.155Z</time>
      </trkpt>
      <trkpt lat="44.59154" lon="5.569">
        <ele>836.25</ele>
        <time>2016-10-20T13:56:33.992Z</time>
      </trkpt>
      <trkpt lat="44.59134" lon="5.56877">
        <ele>832.05</ele>
        <time>2016-10-20T13:56:53.636Z</time>
      </trkpt>
      <trkpt lat="44.59122" lon="5.5685">
        <ele>830.02</ele>
        <time>2016-10-20T13:57:15.987Z</time>
      </trkpt>
      <trkpt lat="44.59118" lon="5.56817">
        <ele>830.14</ele>
        <time>2016-10-20T13:57:39.055Z</time>
      </trkpt>
      <trkpt lat="44.59109" lon="5.56787">
        <ele>830.21</ele>
        <time>2016-10-20T13:57:59.001Z</time>
      </trkpt>
      <trkpt lat="44.59092" lon="5.56764">
        <ele>829.28</ele>
        <time>2016-10-20T13:58:17.885Z</time>
      </trkpt>
      <trkpt lat="44.59079" lon="5.56735">
        <ele>829.35</ele>
        <time>2016-10-20T13:58:34.851Z</time>
      </trkpt>
      <trkpt lat="44.59067" lon="5.56707">
        <ele>829.17</ele>
        <time>2016-10-20T13:58:52.886Z</time>
      </trkpt>
      <trkpt lat="44.5905" lon="5.56684">
        <ele>827.22</ele>
        <time>2016-10-20T13:59:11.065Z</time>
      </trkpt>
      <trkpt lat="44.59034" lon="5.56659">
        <ele>825.03</ele>
        <time>2016-10-20T13:59:25.939Z</time>
      </trkpt>
      <trkpt lat="44.59022" lon="5.56631">
        <ele>824.25</ele>
        <time>2016-10-20T13:59:40.044Z</time>
      </trkpt>
      <trkpt lat="44.59005" lon="5.56611">
        <ele>822.95</ele>
        <time>2016-10-20T13:59:55.086Z</time>
      </trkpt>
      <trkpt lat="44.58994" lon="5.56638">
        <ele>821.1</ele>
        <time>2016-10-20T14:00:22.860Z</time>
      </trkpt>
      <trkpt lat="44.58979" lon="5.56662">
        <ele>822.11</ele>
        <time>2016-10-20T14:00:41.048Z</time>
      </trkpt>
      <trkpt lat="44.58958" lon="5.56675">
        <ele>827.12</ele>
        <time>2016-10-20T14:00:55.201Z</time>
      </trkpt>
      <trkpt lat="44.58934" lon="5.56669">
        <ele>832.81</ele>
        <time>2016-10-20T14:01:17.851Z</time>
      </trkpt>
      <trkpt lat="44.58918" lon="5.56645">
        <ele>832.08</ele>
        <time>2016-10-20T14:01:34.127Z</time>
      </trkpt>
      <trkpt lat="44.58905" lon="5.56613">
        <ele>828.35</ele>
        <time>2016-10-20T14:06:52.912Z</time>
      </trkpt>
      <trkpt lat="44.58883" lon="5.56596">
        <ele>831.16</ele>
        <time>2016-10-20T14:06:59.880Z</time>
      </trkpt>
      <trkpt lat="44.58865" lon="5.56574">
        <ele>831.08</ele>
        <time>2016-10-20T14:07:11.837Z</time>
      </trkpt>
      <trkpt lat="44.58847" lon="5.56553">
        <ele>830.07</ele>
        <time>2016-10-20T14:07:29.867Z</time>
      </trkpt>
      <trkpt lat="44.58826" lon="5.5654">
        <ele>830.42</ele>
        <time>2016-10-20T14:07:48.026Z</time>
      </trkpt>
      <trkpt lat="44.58805" lon="5.56528">
        <ele>830.87</ele>
        <time>2016-10-20T14:08:05.848Z</time>
      </trkpt>
      <trkpt lat="44.58783" lon="5.56523">
        <ele>834.1</ele>
        <time>2016-10-20T14:08:22.996Z</time>
      </trkpt>
      <trkpt lat="44.58762" lon="5.56511">
        <ele>834.56</ele>
        <time>2016-10-20T14:08:38.853Z</time>
      </trkpt>
      <trkpt lat="44.58747" lon="5.56483">
        <ele>831.01</ele>
        <time>2016-10-20T14:08:54.875Z</time>
      </trkpt>
      <trkpt lat="44.58736" lon="5.56455">
        <ele>828.42</ele>
        <time>2016-10-20T14:09:12.855Z</time>
      </trkpt>
      <trkpt lat="44.58719" lon="5.56432">
        <ele>828.13</ele>
        <time>2016-10-20T14:09:26.192Z</time>
      </trkpt>
      <trkpt lat="44.587" lon="5.56413">
        <ele>828.29</ele>
        <time>2016-10-20T14:09:42.052Z</time>
      </trkpt>
      <trkpt lat="44.58684" lon="5.56389">
        <ele>827.25</ele>
        <time>2016-10-20T14:09:57.984Z</time>
      </trkpt>
      <trkpt lat="44.58667" lon="5.56365">
        <ele>827.01</ele>
        <time>2016-10-20T14:10:11.072Z</time>
      </trkpt>
      <trkpt lat="44.58643" lon="5.56369">
        <ele>832.91</ele>
        <time>2016-10-20T14:10:30.045Z</time>
      </trkpt>
      <trkpt lat="44.58621" lon="5.56363">
        <ele>838.1</ele>
        <time>2016-10-20T14:10:47.046Z</time>
      </trkpt>
      <trkpt lat="44.58616" lon="5.56331">
        <ele>834.85</ele>
        <time>2016-10-20T14:11:06.063Z</time>
      </trkpt>
      <trkpt lat="44.58608" lon="5.56301">
        <ele>833.1</ele>
        <time>2016-10-20T14:11:22.052Z</time>
      </trkpt>
      <trkpt lat="44.58587" lon="5.56286">
        <ele>834.93</ele>
        <time>2016-10-20T14:11:34.038Z</time>
      </trkpt>
      <trkpt lat="44.58573" lon="5.56261">
        <ele>832.48</ele>
        <time>2016-10-20T14:11:45.093Z</time>
      </trkpt>
      <trkpt lat="44.58561" lon="5.56291">
        <ele>837.84</ele>
        <time>2016-10-20T14:12:57.854Z</time>
      </trkpt>
      <trkpt lat="44.58537" lon="5.563">
        <ele>840.18</ele>
        <time>2016-10-20T14:13:12.855Z</time>
      </trkpt>
      <trkpt lat="44.58516" lon="5.56316">
        <ele>844.01</ele>
        <time>2016-10-20T14:13:38.954Z</time>
      </trkpt>
      <trkpt lat="44.58495" lon="5.56328">
        <ele>848.31</ele>
        <time>2016-10-20T14:14:13.067Z</time>
      </trkpt>
      <trkpt lat="44.58474" lon="5.56348">
        <ele>854.29</ele>
        <time>2016-10-20T14:14:37.854Z</time>
      </trkpt>
      <trkpt lat="44.58452" lon="5.56357">
        <ele>857.64</ele>
        <time>2016-10-20T14:15:07.866Z</time>
      </trkpt>
      <trkpt lat="44.58429" lon="5.56368">
        <ele>861.69</ele>
        <time>2016-10-20T14:15:33.966Z</time>
      </trkpt>
      <trkpt lat="44.58448" lon="5.56347">
        <ele>855.76</ele>
        <time>2016-10-20T14:18:21.974Z</time>
      </trkpt>
      <trkpt lat="44.58469" lon="5.56333">
        <ele>851.4</ele>
        <time>2016-10-20T14:18:34.931Z</time>
      </trkpt>
      <trkpt lat="44.58491" lon="5.56323">
        <ele>847.53</ele>
        <time>2016-10-20T14:18:51.103Z</time>
      </trkpt>
      <trkpt lat="44.58469" lon="5.56312">
        <ele>846.97</ele>
        <time>2016-10-20T14:19:39.833Z</time>
      </trkpt>
      <trkpt lat="44.58446" lon="5.56306">
        <ele>848.26</ele>
        <time>2016-10-20T14:19:53.841Z</time>
      </trkpt>
      <trkpt lat="44.58426" lon="5.56293">
        <ele>848.73</ele>
        <time>2016-10-20T14:20:09.848Z</time>
      </trkpt>
      <trkpt lat="44.58413" lon="5.56266">
        <ele>846.51</ele>
        <time>2016-10-20T14:20:27.858Z</time>
      </trkpt>
      <trkpt lat="44.5839" lon="5.56261">
        <ele>850.64</ele>
        <time>2016-10-20T14:20:54.847Z</time>
      </trkpt>
      <trkpt lat="44.58368" lon="5.56251">
        <ele>853.93</ele>
        <time>2016-10-20T14:21:15.934Z</time>
      </trkpt>
      <trkpt lat="44.58346" lon="5.56241">
        <ele>856.72</ele>
        <time>2016-10-20T14:21:40.065Z</time>
      </trkpt>
      <trkpt lat="44.58324" lon="5.56229">
        <ele>858.51</ele>
        <time>2016-10-20T14:22:02.085Z</time>
      </trkpt>
      <trkpt lat="44.58303" lon="5.56215">
        <ele>859.27</ele>
        <time>2016-10-20T14:22:22.860Z</time>
      </trkpt>
      <trkpt lat="44.58282" lon="5.56204">
        <ele>859.66</ele>
        <time>2016-10-20T14:22:48.915Z</time>
      </trkpt>
      <trkpt lat="44.5826" lon="5.56194">
        <ele>859.68</ele>
        <time>2016-10-20T14:23:07.830Z</time>
      </trkpt>
      <trkpt lat="44.58241" lon="5.56214">
        <ele>865.93</ele>
        <time>2016-10-20T14:23:26.017Z</time>
      </trkpt>
      <trkpt lat="44.58219" lon="5.56222">
        <ele>867.69</ele>
        <time>2016-10-20T14:23:43.845Z</time>
      </trkpt>
      <trkpt lat="44.582" lon="5.5624">
        <ele>870.54</ele>
        <time>2016-10-20T14:24:01.872Z</time>
      </trkpt>
      <trkpt lat="44.58196" lon="5.56271">
        <ele>875.95</ele>
        <time>2016-10-20T14:24:31.071Z</time>
      </trkpt>
      <trkpt lat="44.58205" lon="5.56301">
        <ele>880.1</ele>
        <time>2016-10-20T14:24:53.304Z</time>
      </trkpt>
      <trkpt lat="44.58193" lon="5.56272">
        <ele>876.01</ele>
        <time>2016-10-20T14:25:27.818Z</time>
      </trkpt>
      <trkpt lat="44.58176" lon="5.5625">
        <ele>871.43</ele>
        <time>2016-10-20T14:26:22.847Z</time>
      </trkpt>
      <trkpt lat="44.58168" lon="5.5622">
        <ele>865.07</ele>
        <time>2016-10-20T14:26:38.855Z</time>
      </trkpt>
      <trkpt lat="44.58183" lon="5.56246">
        <ele>870.95</ele>
        <time>2016-10-20T14:27:26.157Z</time>
      </trkpt>
      <trkpt lat="44.58193" lon="5.56275">
        <ele>876.46</ele>
        <time>2016-10-20T14:28:56.838Z</time>
      </trkpt>
      <trkpt lat="44.582" lon="5.56308">
        <ele>880.99</ele>
        <time>2016-10-20T14:29:20.929Z</time>
      </trkpt>
      <trkpt lat="44.58177" lon="5.56307">
        <ele>880.78</ele>
        <time>2016-10-20T14:30:07.012Z</time>
      </trkpt>
      <trkpt lat="44.58154" lon="5.56305">
        <ele>880.1</ele>
        <time>2016-10-20T14:32:03.907Z</time>
      </trkpt>
      <trkpt lat="44.58132" lon="5.56292">
        <ele>877.45</ele>
        <time>2016-10-20T14:32:17.040Z</time>
      </trkpt>
      <trkpt lat="44.58112" lon="5.56278">
        <ele>874.14</ele>
        <time>2016-10-20T14:32:44.827Z</time>
      </trkpt>
      <trkpt lat="44.58089" lon="5.56268">
        <ele>870.92</ele>
        <time>2016-10-20T14:33:02.839Z</time>
      </trkpt>
      <trkpt lat="44.5807" lon="5.56248">
        <ele>865.5</ele>
        <time>2016-10-20T14:33:22.909Z</time>
      </trkpt>
      <trkpt lat="44.58047" lon="5.5624">
        <ele>861.75</ele>
        <time>2016-10-20T14:33:43.870Z</time>
      </trkpt>
      <trkpt lat="44.58023" lon="5.56241">
        <ele>859.34</ele>
        <time>2016-10-20T14:34:03.901Z</time>
      </trkpt>
      <trkpt lat="44.58" lon="5.56245">
        <ele>857.12</ele>
        <time>2016-10-20T14:34:22.833Z</time>
      </trkpt>
      <trkpt lat="44.57977" lon="5.56245">
        <ele>853.61</ele>
        <time>2016-10-20T14:34:42.927Z</time>
      </trkpt>
      <trkpt lat="44.57957" lon="5.56262">
        <ele>853.01</ele>
        <time>2016-10-20T14:35:02.828Z</time>
      </trkpt>
      <trkpt lat="44.57938" lon="5.5628">
        <ele>852.32</ele>
        <time>2016-10-20T14:35:23.023Z</time>
      </trkpt>
      <trkpt lat="44.57915" lon="5.56285">
        <ele>849.23</ele>
        <time>2016-10-20T14:35:42.877Z</time>
      </trkpt>
      <trkpt lat="44.57892" lon="5.56283">
        <ele>844.88</ele>
        <time>2016-10-20T14:35:56.846Z</time>
      </trkpt>
      <trkpt lat="44.5787" lon="5.5628">
        <ele>840.49</ele>
        <time>2016-10-20T14:36:16.840Z</time>
      </trkpt>
      <trkpt lat="44.57846" lon="5.56285">
        <ele>837.38</ele>
        <time>2016-10-20T14:36:38.839Z</time>
      </trkpt>
      <trkpt lat="44.57824" lon="5.56282">
        <ele>833.21</ele>
        <time>2016-10-20T14:36:56.836Z</time>
      </trkpt>
      <trkpt lat="44.57807" lon="5.56305">
        <ele>835.74</ele>
        <time>2016-10-20T14:37:32.834Z</time>
      </trkpt>
      <trkpt lat="44.57785" lon="5.5631">
        <ele>833.69</ele>
        <time>2016-10-20T14:37:52.974Z</time>
      </trkpt>
      <trkpt lat="44.57785" lon="5.56279">
        <ele>825.92</ele>
        <time>2016-10-20T14:38:34.393Z</time>
      </trkpt>
      <trkpt lat="44.5777" lon="5.56254">
        <ele>818.18</ele>
        <time>2016-10-20T14:38:55.914Z</time>
      </trkpt>
      <trkpt lat="44.57755" lon="5.5623">
        <ele>811.17</ele>
        <time>2016-10-20T14:39:16.832Z</time>
      </trkpt>
      <trkpt lat="44.57742" lon="5.56257">
        <ele>816.12</ele>
        <time>2016-10-20T14:39:41.967Z</time>
      </trkpt>
      <trkpt lat="44.57721" lon="5.56268">
        <ele>818.36</ele>
        <time>2016-10-20T14:40:12.850Z</time>
      </trkpt>
      <trkpt lat="44.57696" lon="5.56266">
        <ele>818.02</ele>
        <time>2016-10-20T14:40:39.067Z</time>
      </trkpt>
      <trkpt lat="44.57675" lon="5.56247">
        <ele>812.06</ele>
        <time>2016-10-20T14:40:59.850Z</time>
      </trkpt>
      <trkpt lat="44.57651" lon="5.56242">
        <ele>810.8</ele>
        <time>2016-10-20T14:41:32.870Z</time>
      </trkpt>
      <trkpt lat="44.57626" lon="5.56247">
        <ele>813.65</ele>
        <time>2016-10-20T14:41:52.047Z</time>
      </trkpt>
      <trkpt lat="44.57605" lon="5.56232">
        <ele>809.6</ele>
        <time>2016-10-20T14:42:08.909Z</time>
      </trkpt>
      <trkpt lat="44.57582" lon="5.56224">
        <ele>807.71</ele>
        <time>2016-10-20T14:42:24.065Z</time>
      </trkpt>
      <trkpt lat="44.57559" lon="5.56227">
        <ele>808.58</ele>
        <time>2016-10-20T14:42:41.073Z</time>
      </trkpt>
      <trkpt lat="44.57537" lon="5.5622">
        <ele>805.85</ele>
        <time>2016-10-20T14:42:57.834Z</time>
      </trkpt>
      <trkpt lat="44.57513" lon="5.56222">
        <ele>806.2</ele>
        <time>2016-10-20T14:43:17.841Z</time>
      </trkpt>
      <trkpt lat="44.57484" lon="5.56197">
        <ele>799.11</ele>
        <time>2016-10-20T14:43:47.052Z</time>
      </trkpt>
      <trkpt lat="44.57471" lon="5.56169">
        <ele>790.77</ele>
        <time>2016-10-20T14:44:10.050Z</time>
      </trkpt>
      <trkpt lat="44.57448" lon="5.56164">
        <ele>788.42</ele>
        <time>2016-10-20T14:44:24.082Z</time>
      </trkpt>
      <trkpt lat="44.57426" lon="5.56158">
        <ele>786.17</ele>
        <time>2016-10-20T14:44:40.053Z</time>
      </trkpt>
      <trkpt lat="44.57405" lon="5.56144">
        <ele>782.37</ele>
        <time>2016-10-20T14:45:00.865Z</time>
      </trkpt>
      <trkpt lat="44.57389" lon="5.5612">
        <ele>776.52</ele>
        <time>2016-10-20T14:45:19.034Z</time>
      </trkpt>
      <trkpt lat="44.57366" lon="5.56112">
        <ele>776.56</ele>
        <time>2016-10-20T14:45:36.040Z</time>
      </trkpt>
      <trkpt lat="44.57348" lon="5.5609">
        <ele>772.71</ele>
        <time>2016-10-20T14:45:50.876Z</time>
      </trkpt>
      <trkpt lat="44.57327" lon="5.56073">
        <ele>769.98</ele>
        <time>2016-10-20T14:46:10.854Z</time>
      </trkpt>
      <trkpt lat="44.5731" lon="5.56049">
        <ele>765.84</ele>
        <time>2016-10-20T14:47:40.083Z</time>
      </trkpt>
      <trkpt lat="44.57291" lon="5.56034">
        <ele>763.16</ele>
        <time>2016-10-20T14:47:53.997Z</time>
      </trkpt>
      <trkpt lat="44.57269" lon="5.56021">
        <ele>760.68</ele>
        <time>2016-10-20T14:48:12.046Z</time>
      </trkpt>
      <trkpt lat="44.57249" lon="5.56001">
        <ele>757.18</ele>
        <time>2016-10-20T14:48:31.063Z</time>
      </trkpt>
      <trkpt lat="44.57229" lon="5.55986">
        <ele>754.38</ele>
        <time>2016-10-20T14:48:52.839Z</time>
      </trkpt>
      <trkpt lat="44.57207" lon="5.55976">
        <ele>752.14</ele>
        <time>2016-10-20T14:49:12.044Z</time>
      </trkpt>
      <trkpt lat="44.57185" lon="5.5597">
        <ele>750.04</ele>
        <time>2016-10-20T14:49:34.068Z</time>
      </trkpt>
      <trkpt lat="44.57163" lon="5.55973">
        <ele>749.25</ele>
        <time>2016-10-20T14:49:52.045Z</time>
      </trkpt>
      <trkpt lat="44.57139" lon="5.55977">
        <ele>748.15</ele>
        <time>2016-10-20T14:50:12.041Z</time>
      </trkpt>
      <trkpt lat="44.57116" lon="5.55983">
        <ele>746.75</ele>
        <time>2016-10-20T14:50:29.846Z</time>
      </trkpt>
      <trkpt lat="44.57095" lon="5.55996">
        <ele>746.39</ele>
        <time>2016-10-20T14:50:50.064Z</time>
      </trkpt>
      <trkpt lat="44.57074" lon="5.56007">
        <ele>746.12</ele>
        <time>2016-10-20T14:51:04.883Z</time>
      </trkpt>
      <trkpt lat="44.57053" lon="5.55989">
        <ele>744.05</ele>
        <time>2016-10-20T14:51:22.846Z</time>
      </trkpt>
      <trkpt lat="44.57042" lon="5.56018">
        <ele>745.9</ele>
        <time>2016-10-20T14:51:51.049Z</time>
      </trkpt>
      <trkpt lat="44.57038" lon="5.56049">
        <ele>748.54</ele>
        <time>2016-10-20T14:52:11.026Z</time>
      </trkpt>
      <trkpt lat="44.57031" lon="5.56081">
        <ele>750.95</ele>
        <time>2016-10-20T14:52:25.836Z</time>
      </trkpt>
      <trkpt lat="44.57029" lon="5.56112">
        <ele>752.85</ele>
        <time>2016-10-20T14:52:44.836Z</time>
      </trkpt>
      <trkpt lat="44.5702" lon="5.56142">
        <ele>753.3</ele>
        <time>2016-10-20T14:53:02.837Z</time>
      </trkpt>
      <trkpt lat="44.57016" lon="5.56175">
        <ele>754.49</ele>
        <time>2016-10-20T14:53:20.922Z</time>
      </trkpt>
      <trkpt lat="44.57003" lon="5.56203">
        <ele>755.16</ele>
        <time>2016-10-20T14:53:39.883Z</time>
      </trkpt>
      <trkpt lat="44.57" lon="5.56237">
        <ele>757.26</ele>
        <time>2016-10-20T14:54:05.847Z</time>
      </trkpt>
    </trkseg>
  </trk>
</gpx>